<?xml version="1.0" encoding="UTF-8" standalone="no" ?>
<gpx xmlns="http://www.topografix.com/GPX/1/1" xmlns:xsi="http://www.w3.org/2001/XMLSchema-instance" xsi:schemaLocation="http://www.topografix.com/GPX/1/1 http://www.topografix.com/GPX/1/1/gpx.xsd" version="1.1" creator="VisuGPX - https://www.visugpx.com">
  <metadata>
    <name>Estaragne</name>
    <desc><![CDATA[C'est la misère plus un pet de neige !!!! Mais nous avons pu faire le sommet à skis 

[img]https://lh3.googleusercontent.com/-O7vXyTFKZV4/T7fG6pWwucI/AAAAAAAAI0k/szibwoGtR_8/s645/TOSH0002.JPG[/img]]]></desc>
  </metadata>
  <trk>
    <name><![CDATA[ACTIVE LOG]]></name>
    <trkseg>
      <trkpt lat="42.81562" lon="0.14651">
        <ele>2081.872314</ele>
        <time>2012-05-19T04:47:41Z</time>
      </trkpt>
      <trkpt lat="42.81564" lon="0.14652">
        <ele>2079.949707</ele>
        <time>2012-05-19T04:48:00Z</time>
      </trkpt>
      <trkpt lat="42.81563" lon="0.14651">
        <ele>2076.104492</ele>
        <time>2012-05-19T04:48:57Z</time>
      </trkpt>
      <trkpt lat="42.81563" lon="0.14651">
        <ele>2076.104492</ele>
        <time>2012-05-19T04:49:56Z</time>
      </trkpt>
      <trkpt lat="42.81563" lon="0.14651">
        <ele>2076.104492</ele>
        <time>2012-05-19T04:50:24Z</time>
      </trkpt>
      <trkpt lat="42.81563" lon="0.14652">
        <ele>2076.104492</ele>
        <time>2012-05-19T04:50:54Z</time>
      </trkpt>
      <trkpt lat="42.81563" lon="0.14652">
        <ele>2075.623535</ele>
        <time>2012-05-19T04:51:30Z</time>
      </trkpt>
      <trkpt lat="42.81563" lon="0.14652">
        <ele>2075.623535</ele>
        <time>2012-05-19T04:52:18Z</time>
      </trkpt>
      <trkpt lat="42.81563" lon="0.14652">
        <ele>2075.623535</ele>
        <time>2012-05-19T04:53:00Z</time>
      </trkpt>
      <trkpt lat="42.81563" lon="0.14652">
        <ele>2076.104492</ele>
        <time>2012-05-19T04:53:35Z</time>
      </trkpt>
      <trkpt lat="42.81563" lon="0.14651">
        <ele>2076.585205</ele>
        <time>2012-05-19T04:54:22Z</time>
      </trkpt>
      <trkpt lat="42.81563" lon="0.1465">
        <ele>2076.585205</ele>
        <time>2012-05-19T04:55:06Z</time>
      </trkpt>
      <trkpt lat="42.81564" lon="0.14652">
        <ele>2077.065918</ele>
        <time>2012-05-19T04:55:21Z</time>
      </trkpt>
      <trkpt lat="42.8156" lon="0.14651">
        <ele>2078.0271</ele>
        <time>2012-05-19T04:55:25Z</time>
      </trkpt>
      <trkpt lat="42.81558" lon="0.14652">
        <ele>2078.507812</ele>
        <time>2012-05-19T04:55:27Z</time>
      </trkpt>
      <trkpt lat="42.81545" lon="0.14663">
        <ele>2079.468994</ele>
        <time>2012-05-19T04:55:42Z</time>
      </trkpt>
      <trkpt lat="42.81544" lon="0.14664">
        <ele>2079.468994</ele>
        <time>2012-05-19T04:55:43Z</time>
      </trkpt>
      <trkpt lat="42.81539" lon="0.14678">
        <ele>2082.833496</ele>
        <time>2012-05-19T04:55:54Z</time>
      </trkpt>
      <trkpt lat="42.8153" lon="0.147">
        <ele>2085.236816</ele>
        <time>2012-05-19T04:56:13Z</time>
      </trkpt>
      <trkpt lat="42.81529" lon="0.14702">
        <ele>2085.236816</ele>
        <time>2012-05-19T04:56:19Z</time>
      </trkpt>
      <trkpt lat="42.81526" lon="0.14703">
        <ele>2085.236816</ele>
        <time>2012-05-19T04:56:22Z</time>
      </trkpt>
      <trkpt lat="42.81522" lon="0.14707">
        <ele>2086.198242</ele>
        <time>2012-05-19T04:56:26Z</time>
      </trkpt>
      <trkpt lat="42.81519" lon="0.1471">
        <ele>2086.678711</ele>
        <time>2012-05-19T04:56:29Z</time>
      </trkpt>
      <trkpt lat="42.81512" lon="0.14714">
        <ele>2087.640137</ele>
        <time>2012-05-19T04:56:37Z</time>
      </trkpt>
      <trkpt lat="42.81505" lon="0.1471">
        <ele>2088.12085</ele>
        <time>2012-05-19T04:56:44Z</time>
      </trkpt>
      <trkpt lat="42.81502" lon="0.14707">
        <ele>2088.12085</ele>
        <time>2012-05-19T04:56:49Z</time>
      </trkpt>
      <trkpt lat="42.81499" lon="0.14704">
        <ele>2087.640137</ele>
        <time>2012-05-19T04:56:53Z</time>
      </trkpt>
      <trkpt lat="42.81495" lon="0.14703">
        <ele>2088.12085</ele>
        <time>2012-05-19T04:56:58Z</time>
      </trkpt>
      <trkpt lat="42.81493" lon="0.14703">
        <ele>2088.601562</ele>
        <time>2012-05-19T04:57:00Z</time>
      </trkpt>
      <trkpt lat="42.81492" lon="0.14702">
        <ele>2088.601562</ele>
        <time>2012-05-19T04:57:02Z</time>
      </trkpt>
      <trkpt lat="42.81484" lon="0.14703">
        <ele>2090.043457</ele>
        <time>2012-05-19T04:57:10Z</time>
      </trkpt>
      <trkpt lat="42.81481" lon="0.14705">
        <ele>2090.523926</ele>
        <time>2012-05-19T04:57:13Z</time>
      </trkpt>
      <trkpt lat="42.81475" lon="0.14707">
        <ele>2091.485352</ele>
        <time>2012-05-19T04:57:18Z</time>
      </trkpt>
      <trkpt lat="42.81467" lon="0.14708">
        <ele>2094.850098</ele>
        <time>2012-05-19T04:57:33Z</time>
      </trkpt>
      <trkpt lat="42.81465" lon="0.14712">
        <ele>2095.330811</ele>
        <time>2012-05-19T04:57:37Z</time>
      </trkpt>
      <trkpt lat="42.81462" lon="0.14715">
        <ele>2095.330811</ele>
        <time>2012-05-19T04:57:41Z</time>
      </trkpt>
      <trkpt lat="42.81451" lon="0.14718">
        <ele>2099.176025</ele>
        <time>2012-05-19T04:57:56Z</time>
      </trkpt>
      <trkpt lat="42.81441" lon="0.14722">
        <ele>2103.02124</ele>
        <time>2012-05-19T04:58:10Z</time>
      </trkpt>
      <trkpt lat="42.8144" lon="0.14724">
        <ele>2103.501953</ele>
        <time>2012-05-19T04:58:13Z</time>
      </trkpt>
      <trkpt lat="42.81438" lon="0.14724">
        <ele>2104.463135</ele>
        <time>2012-05-19T04:58:17Z</time>
      </trkpt>
      <trkpt lat="42.81426" lon="0.14727">
        <ele>2107.827881</ele>
        <time>2012-05-19T04:58:33Z</time>
      </trkpt>
      <trkpt lat="42.81421" lon="0.14729">
        <ele>2109.27002</ele>
        <time>2012-05-19T04:58:39Z</time>
      </trkpt>
      <trkpt lat="42.8141" lon="0.14731">
        <ele>2109.750488</ele>
        <time>2012-05-19T04:58:52Z</time>
      </trkpt>
      <trkpt lat="42.81407" lon="0.1473">
        <ele>2110.231201</ele>
        <time>2012-05-19T04:58:56Z</time>
      </trkpt>
      <trkpt lat="42.81402" lon="0.14723">
        <ele>2111.192627</ele>
        <time>2012-05-19T04:59:05Z</time>
      </trkpt>
      <trkpt lat="42.81392" lon="0.14715">
        <ele>2111.192627</ele>
        <time>2012-05-19T04:59:20Z</time>
      </trkpt>
      <trkpt lat="42.81383" lon="0.14705">
        <ele>2114.076416</ele>
        <time>2012-05-19T04:59:32Z</time>
      </trkpt>
      <trkpt lat="42.81378" lon="0.14701">
        <ele>2115.999023</ele>
        <time>2012-05-19T04:59:43Z</time>
      </trkpt>
      <trkpt lat="42.81375" lon="0.147">
        <ele>2116.960449</ele>
        <time>2012-05-19T04:59:46Z</time>
      </trkpt>
      <trkpt lat="42.81369" lon="0.14703">
        <ele>2119.36377</ele>
        <time>2012-05-19T04:59:52Z</time>
      </trkpt>
      <trkpt lat="42.81363" lon="0.14699">
        <ele>2120.324951</ele>
        <time>2012-05-19T04:59:59Z</time>
      </trkpt>
      <trkpt lat="42.81353" lon="0.14698">
        <ele>2121.766846</ele>
        <time>2012-05-19T05:00:10Z</time>
      </trkpt>
      <trkpt lat="42.81349" lon="0.14701">
        <ele>2122.247559</ele>
        <time>2012-05-19T05:00:14Z</time>
      </trkpt>
      <trkpt lat="42.81342" lon="0.14702">
        <ele>2124.651123</ele>
        <time>2012-05-19T05:00:21Z</time>
      </trkpt>
      <trkpt lat="42.81335" lon="0.14712">
        <ele>2125.131592</ele>
        <time>2012-05-19T05:00:40Z</time>
      </trkpt>
      <trkpt lat="42.81332" lon="0.14719">
        <ele>2125.131592</ele>
        <time>2012-05-19T05:00:53Z</time>
      </trkpt>
      <trkpt lat="42.81325" lon="0.14723">
        <ele>2125.612305</ele>
        <time>2012-05-19T05:01:01Z</time>
      </trkpt>
      <trkpt lat="42.81317" lon="0.14727">
        <ele>2127.534912</ele>
        <time>2012-05-19T05:01:13Z</time>
      </trkpt>
      <trkpt lat="42.81311" lon="0.14728">
        <ele>2127.534912</ele>
        <time>2012-05-19T05:01:19Z</time>
      </trkpt>
      <trkpt lat="42.81302" lon="0.14724">
        <ele>2127.054443</ele>
        <time>2012-05-19T05:01:26Z</time>
      </trkpt>
      <trkpt lat="42.81298" lon="0.14723">
        <ele>2127.534912</ele>
        <time>2012-05-19T05:01:30Z</time>
      </trkpt>
      <trkpt lat="42.81287" lon="0.14718">
        <ele>2128.496338</ele>
        <time>2012-05-19T05:01:39Z</time>
      </trkpt>
      <trkpt lat="42.81281" lon="0.14715">
        <ele>2130.418945</ele>
        <time>2012-05-19T05:01:45Z</time>
      </trkpt>
      <trkpt lat="42.81276" lon="0.14715">
        <ele>2131.380127</ele>
        <time>2012-05-19T05:01:49Z</time>
      </trkpt>
      <trkpt lat="42.81272" lon="0.14715">
        <ele>2131.86084</ele>
        <time>2012-05-19T05:01:52Z</time>
      </trkpt>
      <trkpt lat="42.81271" lon="0.14715">
        <ele>2132.341553</ele>
        <time>2012-05-19T05:01:54Z</time>
      </trkpt>
      <trkpt lat="42.8127" lon="0.14714">
        <ele>2132.341553</ele>
        <time>2012-05-19T05:01:56Z</time>
      </trkpt>
      <trkpt lat="42.81266" lon="0.14713">
        <ele>2133.302734</ele>
        <time>2012-05-19T05:02:00Z</time>
      </trkpt>
      <trkpt lat="42.81263" lon="0.14714">
        <ele>2133.783447</ele>
        <time>2012-05-19T05:02:03Z</time>
      </trkpt>
      <trkpt lat="42.81258" lon="0.14714">
        <ele>2134.744873</ele>
        <time>2012-05-19T05:02:09Z</time>
      </trkpt>
      <trkpt lat="42.81247" lon="0.14718">
        <ele>2136.186768</ele>
        <time>2012-05-19T05:02:20Z</time>
      </trkpt>
      <trkpt lat="42.81238" lon="0.14721">
        <ele>2136.667236</ele>
        <time>2012-05-19T05:02:31Z</time>
      </trkpt>
      <trkpt lat="42.81235" lon="0.14723">
        <ele>2136.667236</ele>
        <time>2012-05-19T05:02:35Z</time>
      </trkpt>
      <trkpt lat="42.81229" lon="0.14721">
        <ele>2138.590088</ele>
        <time>2012-05-19T05:02:42Z</time>
      </trkpt>
      <trkpt lat="42.81222" lon="0.14715">
        <ele>2141.474121</ele>
        <time>2012-05-19T05:02:50Z</time>
      </trkpt>
      <trkpt lat="42.8121" lon="0.14709">
        <ele>2144.35791</ele>
        <time>2012-05-19T05:03:04Z</time>
      </trkpt>
      <trkpt lat="42.81208" lon="0.14707">
        <ele>2144.838623</ele>
        <time>2012-05-19T05:03:07Z</time>
      </trkpt>
      <trkpt lat="42.81204" lon="0.14707">
        <ele>2144.35791</ele>
        <time>2012-05-19T05:03:11Z</time>
      </trkpt>
      <trkpt lat="42.812" lon="0.14708">
        <ele>2143.877441</ele>
        <time>2012-05-19T05:03:15Z</time>
      </trkpt>
      <trkpt lat="42.81192" lon="0.1471">
        <ele>2145.319336</ele>
        <time>2012-05-19T05:03:25Z</time>
      </trkpt>
      <trkpt lat="42.81188" lon="0.1471">
        <ele>2146.76123</ele>
        <time>2012-05-19T05:03:30Z</time>
      </trkpt>
      <trkpt lat="42.81177" lon="0.14711">
        <ele>2146.76123</ele>
        <time>2012-05-19T05:03:47Z</time>
      </trkpt>
      <trkpt lat="42.81175" lon="0.14712">
        <ele>2147.722656</ele>
        <time>2012-05-19T05:03:52Z</time>
      </trkpt>
      <trkpt lat="42.8117" lon="0.14712">
        <ele>2149.645264</ele>
        <time>2012-05-19T05:03:59Z</time>
      </trkpt>
      <trkpt lat="42.81162" lon="0.14712">
        <ele>2152.04834</ele>
        <time>2012-05-19T05:04:09Z</time>
      </trkpt>
      <trkpt lat="42.81156" lon="0.14711">
        <ele>2152.529053</ele>
        <time>2012-05-19T05:04:15Z</time>
      </trkpt>
      <trkpt lat="42.8115" lon="0.1471">
        <ele>2153.009766</ele>
        <time>2012-05-19T05:04:21Z</time>
      </trkpt>
      <trkpt lat="42.81138" lon="0.14699">
        <ele>2155.413086</ele>
        <time>2012-05-19T05:04:39Z</time>
      </trkpt>
      <trkpt lat="42.81138" lon="0.14699">
        <ele>2155.413086</ele>
        <time>2012-05-19T05:04:42Z</time>
      </trkpt>
      <trkpt lat="42.81134" lon="0.14695">
        <ele>2155.413086</ele>
        <time>2012-05-19T05:04:46Z</time>
      </trkpt>
      <trkpt lat="42.81129" lon="0.14693">
        <ele>2155.893555</ele>
        <time>2012-05-19T05:04:51Z</time>
      </trkpt>
      <trkpt lat="42.81127" lon="0.1469">
        <ele>2155.893555</ele>
        <time>2012-05-19T05:04:54Z</time>
      </trkpt>
      <trkpt lat="42.8112" lon="0.14688">
        <ele>2155.893555</ele>
        <time>2012-05-19T05:04:59Z</time>
      </trkpt>
      <trkpt lat="42.81107" lon="0.14683">
        <ele>2158.777832</ele>
        <time>2012-05-19T05:05:11Z</time>
      </trkpt>
      <trkpt lat="42.81101" lon="0.14683">
        <ele>2158.777832</ele>
        <time>2012-05-19T05:05:16Z</time>
      </trkpt>
      <trkpt lat="42.81096" lon="0.14683">
        <ele>2158.777832</ele>
        <time>2012-05-19T05:05:21Z</time>
      </trkpt>
      <trkpt lat="42.81088" lon="0.14677">
        <ele>2161.181152</ele>
        <time>2012-05-19T05:05:34Z</time>
      </trkpt>
      <trkpt lat="42.81078" lon="0.14673">
        <ele>2165.026367</ele>
        <time>2012-05-19T05:05:44Z</time>
      </trkpt>
      <trkpt lat="42.81074" lon="0.14672">
        <ele>2165.987549</ele>
        <time>2012-05-19T05:05:48Z</time>
      </trkpt>
      <trkpt lat="42.8106" lon="0.14663">
        <ele>2165.50708</ele>
        <time>2012-05-19T05:06:02Z</time>
      </trkpt>
      <trkpt lat="42.81058" lon="0.14659">
        <ele>2163.584229</ele>
        <time>2012-05-19T05:06:07Z</time>
      </trkpt>
      <trkpt lat="42.81051" lon="0.14648">
        <ele>2161.661865</ele>
        <time>2012-05-19T05:06:21Z</time>
      </trkpt>
      <trkpt lat="42.81051" lon="0.14649">
        <ele>2161.661865</ele>
        <time>2012-05-19T05:06:22Z</time>
      </trkpt>
      <trkpt lat="42.81049" lon="0.14648">
        <ele>2161.181152</ele>
        <time>2012-05-19T05:06:24Z</time>
      </trkpt>
      <trkpt lat="42.81044" lon="0.14644">
        <ele>2161.181152</ele>
        <time>2012-05-19T05:06:30Z</time>
      </trkpt>
      <trkpt lat="42.81036" lon="0.14649">
        <ele>2161.661865</ele>
        <time>2012-05-19T05:06:46Z</time>
      </trkpt>
      <trkpt lat="42.81034" lon="0.14649">
        <ele>2162.142334</ele>
        <time>2012-05-19T05:06:48Z</time>
      </trkpt>
      <trkpt lat="42.81032" lon="0.14649">
        <ele>2162.142334</ele>
        <time>2012-05-19T05:06:50Z</time>
      </trkpt>
      <trkpt lat="42.81029" lon="0.14649">
        <ele>2163.10376</ele>
        <time>2012-05-19T05:06:54Z</time>
      </trkpt>
      <trkpt lat="42.81022" lon="0.14642">
        <ele>2163.10376</ele>
        <time>2012-05-19T05:07:08Z</time>
      </trkpt>
      <trkpt lat="42.8102" lon="0.14641">
        <ele>2163.10376</ele>
        <time>2012-05-19T05:07:20Z</time>
      </trkpt>
      <trkpt lat="42.81014" lon="0.1464">
        <ele>2162.142334</ele>
        <time>2012-05-19T05:07:33Z</time>
      </trkpt>
      <trkpt lat="42.81006" lon="0.14635">
        <ele>2165.50708</ele>
        <time>2012-05-19T05:07:48Z</time>
      </trkpt>
      <trkpt lat="42.81" lon="0.14618">
        <ele>2165.50708</ele>
        <time>2012-05-19T05:08:05Z</time>
      </trkpt>
      <trkpt lat="42.80998" lon="0.14616">
        <ele>2165.50708</ele>
        <time>2012-05-19T05:08:09Z</time>
      </trkpt>
      <trkpt lat="42.80996" lon="0.14612">
        <ele>2166.468262</ele>
        <time>2012-05-19T05:08:15Z</time>
      </trkpt>
      <trkpt lat="42.80992" lon="0.14606">
        <ele>2167.429443</ele>
        <time>2012-05-19T05:08:24Z</time>
      </trkpt>
      <trkpt lat="42.80981" lon="0.14602">
        <ele>2170.313477</ele>
        <time>2012-05-19T05:08:39Z</time>
      </trkpt>
      <trkpt lat="42.80979" lon="0.14601">
        <ele>2170.313477</ele>
        <time>2012-05-19T05:08:41Z</time>
      </trkpt>
      <trkpt lat="42.80972" lon="0.14598">
        <ele>2171.755371</ele>
        <time>2012-05-19T05:08:56Z</time>
      </trkpt>
      <trkpt lat="42.80962" lon="0.14593">
        <ele>2176.081543</ele>
        <time>2012-05-19T05:09:13Z</time>
      </trkpt>
      <trkpt lat="42.80954" lon="0.14589">
        <ele>2176.081543</ele>
        <time>2012-05-19T05:09:26Z</time>
      </trkpt>
      <trkpt lat="42.80949" lon="0.14583">
        <ele>2175.120117</ele>
        <time>2012-05-19T05:09:36Z</time>
      </trkpt>
      <trkpt lat="42.8094" lon="0.14578">
        <ele>2175.60083</ele>
        <time>2012-05-19T05:09:49Z</time>
      </trkpt>
      <trkpt lat="42.80929" lon="0.14576">
        <ele>2180.888184</ele>
        <time>2012-05-19T05:10:03Z</time>
      </trkpt>
      <trkpt lat="42.80919" lon="0.1458">
        <ele>2182.810547</ele>
        <time>2012-05-19T05:10:19Z</time>
      </trkpt>
      <trkpt lat="42.8091" lon="0.14581">
        <ele>2186.655762</ele>
        <time>2012-05-19T05:10:34Z</time>
      </trkpt>
      <trkpt lat="42.8091" lon="0.14581">
        <ele>2186.655762</ele>
        <time>2012-05-19T05:10:35Z</time>
      </trkpt>
      <trkpt lat="42.80902" lon="0.1458">
        <ele>2189.059326</ele>
        <time>2012-05-19T05:10:45Z</time>
      </trkpt>
      <trkpt lat="42.80897" lon="0.14582">
        <ele>2190.020752</ele>
        <time>2012-05-19T05:10:51Z</time>
      </trkpt>
      <trkpt lat="42.80888" lon="0.14582">
        <ele>2192.424072</ele>
        <time>2012-05-19T05:11:07Z</time>
      </trkpt>
      <trkpt lat="42.80882" lon="0.14586">
        <ele>2193.865967</ele>
        <time>2012-05-19T05:11:20Z</time>
      </trkpt>
      <trkpt lat="42.80871" lon="0.14588">
        <ele>2197.230469</ele>
        <time>2012-05-19T05:11:37Z</time>
      </trkpt>
      <trkpt lat="42.80865" lon="0.14592">
        <ele>2200.594971</ele>
        <time>2012-05-19T05:11:51Z</time>
      </trkpt>
      <trkpt lat="42.80863" lon="0.14595">
        <ele>2200.114502</ele>
        <time>2012-05-19T05:11:57Z</time>
      </trkpt>
      <trkpt lat="42.80853" lon="0.14595">
        <ele>2200.594971</ele>
        <time>2012-05-19T05:12:12Z</time>
      </trkpt>
      <trkpt lat="42.80847" lon="0.14601">
        <ele>2200.594971</ele>
        <time>2012-05-19T05:12:26Z</time>
      </trkpt>
      <trkpt lat="42.80842" lon="0.14599">
        <ele>2200.594971</ele>
        <time>2012-05-19T05:12:34Z</time>
      </trkpt>
      <trkpt lat="42.80835" lon="0.14602">
        <ele>2205.401855</ele>
        <time>2012-05-19T05:12:50Z</time>
      </trkpt>
      <trkpt lat="42.80826" lon="0.14605">
        <ele>2206.363037</ele>
        <time>2012-05-19T05:13:05Z</time>
      </trkpt>
      <trkpt lat="42.80816" lon="0.14602">
        <ele>2209.727539</ele>
        <time>2012-05-19T05:13:21Z</time>
      </trkpt>
      <trkpt lat="42.80812" lon="0.14605">
        <ele>2213.572754</ele>
        <time>2012-05-19T05:13:29Z</time>
      </trkpt>
      <trkpt lat="42.80804" lon="0.14603">
        <ele>2217.417969</ele>
        <time>2012-05-19T05:13:44Z</time>
      </trkpt>
      <trkpt lat="42.80798" lon="0.14596">
        <ele>2219.821289</ele>
        <time>2012-05-19T05:13:58Z</time>
      </trkpt>
      <trkpt lat="42.80798" lon="0.14592">
        <ele>2219.34082</ele>
        <time>2012-05-19T05:14:01Z</time>
      </trkpt>
      <trkpt lat="42.80797" lon="0.14586">
        <ele>2220.302246</ele>
        <time>2012-05-19T05:14:12Z</time>
      </trkpt>
      <trkpt lat="42.80788" lon="0.14585">
        <ele>2223.666748</ele>
        <time>2012-05-19T05:14:28Z</time>
      </trkpt>
      <trkpt lat="42.80782" lon="0.14585">
        <ele>2226.550781</ele>
        <time>2012-05-19T05:14:40Z</time>
      </trkpt>
      <trkpt lat="42.80779" lon="0.14586">
        <ele>2227.031494</ele>
        <time>2012-05-19T05:14:43Z</time>
      </trkpt>
      <trkpt lat="42.80766" lon="0.14581">
        <ele>2228.473389</ele>
        <time>2012-05-19T05:15:02Z</time>
      </trkpt>
      <trkpt lat="42.80762" lon="0.14575">
        <ele>2229.915283</ele>
        <time>2012-05-19T05:15:16Z</time>
      </trkpt>
      <trkpt lat="42.80753" lon="0.14564">
        <ele>2231.837891</ele>
        <time>2012-05-19T05:15:33Z</time>
      </trkpt>
      <trkpt lat="42.8075" lon="0.14558">
        <ele>2232.318604</ele>
        <time>2012-05-19T05:15:40Z</time>
      </trkpt>
      <trkpt lat="42.80746" lon="0.14546">
        <ele>2234.721924</ele>
        <time>2012-05-19T05:15:55Z</time>
      </trkpt>
      <trkpt lat="42.80742" lon="0.14542">
        <ele>2235.683105</ele>
        <time>2012-05-19T05:16:10Z</time>
      </trkpt>
      <trkpt lat="42.80729" lon="0.14532">
        <ele>2240.489746</ele>
        <time>2012-05-19T05:16:28Z</time>
      </trkpt>
      <trkpt lat="42.80727" lon="0.1453">
        <ele>2241.451172</ele>
        <time>2012-05-19T05:16:31Z</time>
      </trkpt>
      <trkpt lat="42.80719" lon="0.1452">
        <ele>2243.373779</ele>
        <time>2012-05-19T05:16:42Z</time>
      </trkpt>
      <trkpt lat="42.80714" lon="0.14515">
        <ele>2244.815674</ele>
        <time>2012-05-19T05:16:51Z</time>
      </trkpt>
      <trkpt lat="42.80714" lon="0.14508">
        <ele>2247.218994</ele>
        <time>2012-05-19T05:17:11Z</time>
      </trkpt>
      <trkpt lat="42.80714" lon="0.14508">
        <ele>2247.218994</ele>
        <time>2012-05-19T05:17:13Z</time>
      </trkpt>
      <trkpt lat="42.80713" lon="0.1451">
        <ele>2245.7771</ele>
        <time>2012-05-19T05:17:30Z</time>
      </trkpt>
      <trkpt lat="42.80711" lon="0.14508">
        <ele>2245.296387</ele>
        <time>2012-05-19T05:18:36Z</time>
      </trkpt>
      <trkpt lat="42.80711" lon="0.14507">
        <ele>2248.180176</ele>
        <time>2012-05-19T05:24:23Z</time>
      </trkpt>
      <trkpt lat="42.8071" lon="0.14506">
        <ele>2248.180176</ele>
        <time>2012-05-19T05:28:20Z</time>
      </trkpt>
      <trkpt lat="42.80711" lon="0.14504">
        <ele>2246.257812</ele>
        <time>2012-05-19T05:31:36Z</time>
      </trkpt>
      <trkpt lat="42.80712" lon="0.14505">
        <ele>2248.660889</ele>
        <time>2012-05-19T05:32:21Z</time>
      </trkpt>
      <trkpt lat="42.80711" lon="0.14506">
        <ele>2250.103027</ele>
        <time>2012-05-19T05:32:47Z</time>
      </trkpt>
      <trkpt lat="42.80711" lon="0.14506">
        <ele>2250.103027</ele>
        <time>2012-05-19T05:33:10Z</time>
      </trkpt>
      <trkpt lat="42.8071" lon="0.14506">
        <ele>2250.583496</ele>
        <time>2012-05-19T05:33:37Z</time>
      </trkpt>
      <trkpt lat="42.8071" lon="0.14506">
        <ele>2251.064209</ele>
        <time>2012-05-19T05:33:51Z</time>
      </trkpt>
      <trkpt lat="42.80709" lon="0.14507">
        <ele>2250.583496</ele>
        <time>2012-05-19T05:34:03Z</time>
      </trkpt>
      <trkpt lat="42.80709" lon="0.14508">
        <ele>2250.103027</ele>
        <time>2012-05-19T05:34:35Z</time>
      </trkpt>
      <trkpt lat="42.80708" lon="0.14506">
        <ele>2250.103027</ele>
        <time>2012-05-19T05:34:56Z</time>
      </trkpt>
      <trkpt lat="42.80709" lon="0.14506">
        <ele>2249.622314</ele>
        <time>2012-05-19T05:35:17Z</time>
      </trkpt>
      <trkpt lat="42.80709" lon="0.14506">
        <ele>2249.622314</ele>
        <time>2012-05-19T05:35:19Z</time>
      </trkpt>
      <trkpt lat="42.80704" lon="0.14506">
        <ele>2250.103027</ele>
        <time>2012-05-19T05:35:36Z</time>
      </trkpt>
      <trkpt lat="42.80704" lon="0.14506">
        <ele>2250.103027</ele>
        <time>2012-05-19T05:35:59Z</time>
      </trkpt>
      <trkpt lat="42.80695" lon="0.14501">
        <ele>2254.909668</ele>
        <time>2012-05-19T05:36:09Z</time>
      </trkpt>
      <trkpt lat="42.80681" lon="0.14502">
        <ele>2257.312988</ele>
        <time>2012-05-19T05:36:24Z</time>
      </trkpt>
      <trkpt lat="42.80678" lon="0.14503">
        <ele>2258.754883</ele>
        <time>2012-05-19T05:36:29Z</time>
      </trkpt>
      <trkpt lat="42.80671" lon="0.14507">
        <ele>2257.793701</ele>
        <time>2012-05-19T05:36:36Z</time>
      </trkpt>
      <trkpt lat="42.80664" lon="0.1451">
        <ele>2260.67749</ele>
        <time>2012-05-19T05:36:46Z</time>
      </trkpt>
      <trkpt lat="42.80657" lon="0.14512">
        <ele>2259.716064</ele>
        <time>2012-05-19T05:36:55Z</time>
      </trkpt>
      <trkpt lat="42.80652" lon="0.14513">
        <ele>2260.67749</ele>
        <time>2012-05-19T05:37:01Z</time>
      </trkpt>
      <trkpt lat="42.80649" lon="0.14513">
        <ele>2261.638916</ele>
        <time>2012-05-19T05:37:05Z</time>
      </trkpt>
      <trkpt lat="42.80643" lon="0.14514">
        <ele>2261.638916</ele>
        <time>2012-05-19T05:37:10Z</time>
      </trkpt>
      <trkpt lat="42.80635" lon="0.14515">
        <ele>2263.561279</ele>
        <time>2012-05-19T05:37:24Z</time>
      </trkpt>
      <trkpt lat="42.8063" lon="0.14515">
        <ele>2262.600098</ele>
        <time>2012-05-19T05:37:32Z</time>
      </trkpt>
      <trkpt lat="42.80624" lon="0.14518">
        <ele>2263.080811</ele>
        <time>2012-05-19T05:37:38Z</time>
      </trkpt>
      <trkpt lat="42.80619" lon="0.14525">
        <ele>2265.9646</ele>
        <time>2012-05-19T05:37:46Z</time>
      </trkpt>
      <trkpt lat="42.80615" lon="0.14524">
        <ele>2268.368164</ele>
        <time>2012-05-19T05:37:52Z</time>
      </trkpt>
      <trkpt lat="42.80604" lon="0.14518">
        <ele>2270.290771</ele>
        <time>2012-05-19T05:38:06Z</time>
      </trkpt>
      <trkpt lat="42.80594" lon="0.14515">
        <ele>2270.771484</ele>
        <time>2012-05-19T05:38:18Z</time>
      </trkpt>
      <trkpt lat="42.80587" lon="0.14512">
        <ele>2271.251953</ele>
        <time>2012-05-19T05:38:32Z</time>
      </trkpt>
      <trkpt lat="42.80587" lon="0.14512">
        <ele>2271.732666</ele>
        <time>2012-05-19T05:38:33Z</time>
      </trkpt>
      <trkpt lat="42.80582" lon="0.1451">
        <ele>2272.213379</ele>
        <time>2012-05-19T05:38:38Z</time>
      </trkpt>
      <trkpt lat="42.80574" lon="0.14508">
        <ele>2277.02002</ele>
        <time>2012-05-19T05:38:53Z</time>
      </trkpt>
      <trkpt lat="42.8057" lon="0.14506">
        <ele>2278.461914</ele>
        <time>2012-05-19T05:38:59Z</time>
      </trkpt>
      <trkpt lat="42.80565" lon="0.14505">
        <ele>2279.423096</ele>
        <time>2012-05-19T05:39:16Z</time>
      </trkpt>
      <trkpt lat="42.80562" lon="0.14504">
        <ele>2279.903809</ele>
        <time>2012-05-19T05:39:19Z</time>
      </trkpt>
      <trkpt lat="42.80559" lon="0.14503">
        <ele>2280.865234</ele>
        <time>2012-05-19T05:39:22Z</time>
      </trkpt>
      <trkpt lat="42.80554" lon="0.14498">
        <ele>2286.152588</ele>
        <time>2012-05-19T05:39:36Z</time>
      </trkpt>
      <trkpt lat="42.80549" lon="0.14496">
        <ele>2287.11377</ele>
        <time>2012-05-19T05:39:43Z</time>
      </trkpt>
      <trkpt lat="42.80542" lon="0.14489">
        <ele>2289.51709</ele>
        <time>2012-05-19T05:39:56Z</time>
      </trkpt>
      <trkpt lat="42.80539" lon="0.14487">
        <ele>2288.555908</ele>
        <time>2012-05-19T05:39:59Z</time>
      </trkpt>
      <trkpt lat="42.80536" lon="0.14483">
        <ele>2289.51709</ele>
        <time>2012-05-19T05:40:07Z</time>
      </trkpt>
      <trkpt lat="42.80533" lon="0.1448">
        <ele>2289.997803</ele>
        <time>2012-05-19T05:40:12Z</time>
      </trkpt>
      <trkpt lat="42.80527" lon="0.14475">
        <ele>2293.362305</ele>
        <time>2012-05-19T05:40:22Z</time>
      </trkpt>
      <trkpt lat="42.8052" lon="0.14467">
        <ele>2296.726807</ele>
        <time>2012-05-19T05:40:37Z</time>
      </trkpt>
      <trkpt lat="42.80512" lon="0.1446">
        <ele>2296.246338</ele>
        <time>2012-05-19T05:40:50Z</time>
      </trkpt>
      <trkpt lat="42.80509" lon="0.14458">
        <ele>2296.726807</ele>
        <time>2012-05-19T05:40:54Z</time>
      </trkpt>
      <trkpt lat="42.80502" lon="0.14456">
        <ele>2297.20752</ele>
        <time>2012-05-19T05:41:02Z</time>
      </trkpt>
      <trkpt lat="42.805" lon="0.14454">
        <ele>2297.688232</ele>
        <time>2012-05-19T05:41:08Z</time>
      </trkpt>
      <trkpt lat="42.805" lon="0.14453">
        <ele>2298.168701</ele>
        <time>2012-05-19T05:41:10Z</time>
      </trkpt>
      <trkpt lat="42.805" lon="0.14452">
        <ele>2299.130127</ele>
        <time>2012-05-19T05:41:12Z</time>
      </trkpt>
      <trkpt lat="42.805" lon="0.14449">
        <ele>2300.091797</ele>
        <time>2012-05-19T05:41:15Z</time>
      </trkpt>
      <trkpt lat="42.80496" lon="0.14446">
        <ele>2302.01416</ele>
        <time>2012-05-19T05:41:22Z</time>
      </trkpt>
      <trkpt lat="42.80487" lon="0.14441">
        <ele>2304.898193</ele>
        <time>2012-05-19T05:41:39Z</time>
      </trkpt>
      <trkpt lat="42.80483" lon="0.14439">
        <ele>2305.378906</ele>
        <time>2012-05-19T05:41:47Z</time>
      </trkpt>
      <trkpt lat="42.80479" lon="0.14437">
        <ele>2309.224121</ele>
        <time>2012-05-19T05:41:56Z</time>
      </trkpt>
      <trkpt lat="42.80477" lon="0.14437">
        <ele>2311.146729</ele>
        <time>2012-05-19T05:41:59Z</time>
      </trkpt>
      <trkpt lat="42.80475" lon="0.14436">
        <ele>2312.588623</ele>
        <time>2012-05-19T05:42:02Z</time>
      </trkpt>
      <trkpt lat="42.80472" lon="0.14433">
        <ele>2314.030518</ele>
        <time>2012-05-19T05:42:09Z</time>
      </trkpt>
      <trkpt lat="42.80469" lon="0.1443">
        <ele>2316.434082</ele>
        <time>2012-05-19T05:42:14Z</time>
      </trkpt>
      <trkpt lat="42.80466" lon="0.14431">
        <ele>2326.527832</ele>
        <time>2012-05-19T05:42:29Z</time>
      </trkpt>
      <trkpt lat="42.80466" lon="0.1443">
        <ele>2327.008545</ele>
        <time>2012-05-19T05:42:42Z</time>
      </trkpt>
      <trkpt lat="42.80464" lon="0.14425">
        <ele>2324.124512</ele>
        <time>2012-05-19T05:42:55Z</time>
      </trkpt>
      <trkpt lat="42.80463" lon="0.14423">
        <ele>2323.643799</ele>
        <time>2012-05-19T05:43:11Z</time>
      </trkpt>
      <trkpt lat="42.80453" lon="0.1442">
        <ele>2324.124512</ele>
        <time>2012-05-19T05:43:31Z</time>
      </trkpt>
      <trkpt lat="42.80445" lon="0.14415">
        <ele>2328.930908</ele>
        <time>2012-05-19T05:43:44Z</time>
      </trkpt>
      <trkpt lat="42.80441" lon="0.14412">
        <ele>2330.85376</ele>
        <time>2012-05-19T05:43:49Z</time>
      </trkpt>
      <trkpt lat="42.80438" lon="0.1441">
        <ele>2330.373047</ele>
        <time>2012-05-19T05:43:53Z</time>
      </trkpt>
      <trkpt lat="42.80432" lon="0.14407">
        <ele>2331.334229</ele>
        <time>2012-05-19T05:44:07Z</time>
      </trkpt>
      <trkpt lat="42.80427" lon="0.14401">
        <ele>2335.6604</ele>
        <time>2012-05-19T05:44:20Z</time>
      </trkpt>
      <trkpt lat="42.80422" lon="0.14396">
        <ele>2334.699219</ele>
        <time>2012-05-19T05:44:37Z</time>
      </trkpt>
      <trkpt lat="42.80415" lon="0.144">
        <ele>2335.179688</ele>
        <time>2012-05-19T05:44:49Z</time>
      </trkpt>
      <trkpt lat="42.80407" lon="0.14393">
        <ele>2336.141113</ele>
        <time>2012-05-19T05:45:06Z</time>
      </trkpt>
      <trkpt lat="42.80405" lon="0.14394">
        <ele>2338.063721</ele>
        <time>2012-05-19T05:45:15Z</time>
      </trkpt>
      <trkpt lat="42.80402" lon="0.14396">
        <ele>2340.94751</ele>
        <time>2012-05-19T05:45:33Z</time>
      </trkpt>
      <trkpt lat="42.80394" lon="0.14394">
        <ele>2345.273438</ele>
        <time>2012-05-19T05:45:47Z</time>
      </trkpt>
      <trkpt lat="42.80389" lon="0.14396">
        <ele>2344.792725</ele>
        <time>2012-05-19T05:45:53Z</time>
      </trkpt>
      <trkpt lat="42.80386" lon="0.14388">
        <ele>2347.676758</ele>
        <time>2012-05-19T05:46:09Z</time>
      </trkpt>
      <trkpt lat="42.80378" lon="0.14386">
        <ele>2349.118896</ele>
        <time>2012-05-19T05:46:24Z</time>
      </trkpt>
      <trkpt lat="42.80377" lon="0.14384">
        <ele>2350.080322</ele>
        <time>2012-05-19T05:46:32Z</time>
      </trkpt>
      <trkpt lat="42.80375" lon="0.14379">
        <ele>2351.041504</ele>
        <time>2012-05-19T05:46:46Z</time>
      </trkpt>
      <trkpt lat="42.80372" lon="0.14383">
        <ele>2352.002686</ele>
        <time>2012-05-19T05:47:01Z</time>
      </trkpt>
      <trkpt lat="42.80372" lon="0.14383">
        <ele>2352.483398</ele>
        <time>2012-05-19T05:47:04Z</time>
      </trkpt>
      <trkpt lat="42.80367" lon="0.14386">
        <ele>2357.290039</ele>
        <time>2012-05-19T05:47:18Z</time>
      </trkpt>
      <trkpt lat="42.80365" lon="0.14384">
        <ele>2359.212646</ele>
        <time>2012-05-19T05:47:30Z</time>
      </trkpt>
      <trkpt lat="42.80361" lon="0.14382">
        <ele>2362.577148</ele>
        <time>2012-05-19T05:47:37Z</time>
      </trkpt>
      <trkpt lat="42.80353" lon="0.14393">
        <ele>2360.654541</ele>
        <time>2012-05-19T05:47:54Z</time>
      </trkpt>
      <trkpt lat="42.80347" lon="0.14402">
        <ele>2364.980713</ele>
        <time>2012-05-19T05:48:07Z</time>
      </trkpt>
      <trkpt lat="42.80342" lon="0.1441">
        <ele>2368.825928</ele>
        <time>2012-05-19T05:48:23Z</time>
      </trkpt>
      <trkpt lat="42.80336" lon="0.1442">
        <ele>2371.229004</ele>
        <time>2012-05-19T05:48:44Z</time>
      </trkpt>
      <trkpt lat="42.80331" lon="0.14427">
        <ele>2370.267822</ele>
        <time>2012-05-19T05:49:02Z</time>
      </trkpt>
      <trkpt lat="42.80327" lon="0.1442">
        <ele>2372.19043</ele>
        <time>2012-05-19T05:49:28Z</time>
      </trkpt>
      <trkpt lat="42.80325" lon="0.14415">
        <ele>2372.19043</ele>
        <time>2012-05-19T05:49:33Z</time>
      </trkpt>
      <trkpt lat="42.80318" lon="0.14403">
        <ele>2375.554932</ele>
        <time>2012-05-19T05:49:48Z</time>
      </trkpt>
      <trkpt lat="42.80314" lon="0.14389">
        <ele>2377.958252</ele>
        <time>2012-05-19T05:50:05Z</time>
      </trkpt>
      <trkpt lat="42.80312" lon="0.14379">
        <ele>2382.764893</ele>
        <time>2012-05-19T05:50:19Z</time>
      </trkpt>
      <trkpt lat="42.80309" lon="0.14372">
        <ele>2384.207031</ele>
        <time>2012-05-19T05:50:34Z</time>
      </trkpt>
      <trkpt lat="42.80304" lon="0.14358">
        <ele>2388.532959</ele>
        <time>2012-05-19T05:50:50Z</time>
      </trkpt>
      <trkpt lat="42.80301" lon="0.14349">
        <ele>2389.974854</ele>
        <time>2012-05-19T05:50:59Z</time>
      </trkpt>
      <trkpt lat="42.80297" lon="0.14337">
        <ele>2392.378174</ele>
        <time>2012-05-19T05:51:14Z</time>
      </trkpt>
      <trkpt lat="42.80296" lon="0.14336">
        <ele>2392.378174</ele>
        <time>2012-05-19T05:51:15Z</time>
      </trkpt>
      <trkpt lat="42.80296" lon="0.14333">
        <ele>2392.378174</ele>
        <time>2012-05-19T05:51:18Z</time>
      </trkpt>
      <trkpt lat="42.80294" lon="0.14327">
        <ele>2392.858643</ele>
        <time>2012-05-19T05:51:40Z</time>
      </trkpt>
      <trkpt lat="42.80292" lon="0.14314">
        <ele>2393.820068</ele>
        <time>2012-05-19T05:51:55Z</time>
      </trkpt>
      <trkpt lat="42.80292" lon="0.14308">
        <ele>2393.820068</ele>
        <time>2012-05-19T05:52:16Z</time>
      </trkpt>
      <trkpt lat="42.80295" lon="0.14296">
        <ele>2396.223633</ele>
        <time>2012-05-19T05:52:31Z</time>
      </trkpt>
      <trkpt lat="42.80296" lon="0.14291">
        <ele>2396.223633</ele>
        <time>2012-05-19T05:52:47Z</time>
      </trkpt>
      <trkpt lat="42.80295" lon="0.14288">
        <ele>2394.300537</ele>
        <time>2012-05-19T05:52:53Z</time>
      </trkpt>
      <trkpt lat="42.80295" lon="0.1428">
        <ele>2396.704102</ele>
        <time>2012-05-19T05:52:59Z</time>
      </trkpt>
      <trkpt lat="42.80295" lon="0.14273">
        <ele>2397.184814</ele>
        <time>2012-05-19T05:53:09Z</time>
      </trkpt>
      <trkpt lat="42.80295" lon="0.14261">
        <ele>2399.588135</ele>
        <time>2012-05-19T05:53:18Z</time>
      </trkpt>
      <trkpt lat="42.80295" lon="0.14246">
        <ele>2403.914062</ele>
        <time>2012-05-19T05:53:39Z</time>
      </trkpt>
      <trkpt lat="42.80296" lon="0.14237">
        <ele>2406.797852</ele>
        <time>2012-05-19T05:53:56Z</time>
      </trkpt>
      <trkpt lat="42.80295" lon="0.14232">
        <ele>2410.162354</ele>
        <time>2012-05-19T05:54:14Z</time>
      </trkpt>
      <trkpt lat="42.80295" lon="0.14223">
        <ele>2412.085205</ele>
        <time>2012-05-19T05:54:30Z</time>
      </trkpt>
      <trkpt lat="42.80296" lon="0.14211">
        <ele>2414.969238</ele>
        <time>2012-05-19T05:54:43Z</time>
      </trkpt>
      <trkpt lat="42.80296" lon="0.1421">
        <ele>2414.969238</ele>
        <time>2012-05-19T05:54:44Z</time>
      </trkpt>
      <trkpt lat="42.80295" lon="0.14206">
        <ele>2416.411133</ele>
        <time>2012-05-19T05:54:47Z</time>
      </trkpt>
      <trkpt lat="42.80294" lon="0.14195">
        <ele>2418.33374</ele>
        <time>2012-05-19T05:55:07Z</time>
      </trkpt>
      <trkpt lat="42.80293" lon="0.14181">
        <ele>2421.698242</ele>
        <time>2012-05-19T05:55:24Z</time>
      </trkpt>
      <trkpt lat="42.80293" lon="0.14181">
        <ele>2422.178955</ele>
        <time>2012-05-19T05:55:29Z</time>
      </trkpt>
      <trkpt lat="42.80292" lon="0.1418">
        <ele>2423.140381</ele>
        <time>2012-05-19T05:55:46Z</time>
      </trkpt>
      <trkpt lat="42.80285" lon="0.14186">
        <ele>2424.582275</ele>
        <time>2012-05-19T05:56:00Z</time>
      </trkpt>
      <trkpt lat="42.80282" lon="0.14187">
        <ele>2426.02417</ele>
        <time>2012-05-19T05:56:10Z</time>
      </trkpt>
      <trkpt lat="42.8028" lon="0.14184">
        <ele>2427.946777</ele>
        <time>2012-05-19T05:56:28Z</time>
      </trkpt>
      <trkpt lat="42.80279" lon="0.14179">
        <ele>2429.869629</ele>
        <time>2012-05-19T05:56:32Z</time>
      </trkpt>
      <trkpt lat="42.80277" lon="0.14165">
        <ele>2438.521484</ele>
        <time>2012-05-19T05:56:45Z</time>
      </trkpt>
      <trkpt lat="42.80277" lon="0.14163">
        <ele>2439.001953</ele>
        <time>2012-05-19T05:56:46Z</time>
      </trkpt>
      <trkpt lat="42.80275" lon="0.14162">
        <ele>2440.924561</ele>
        <time>2012-05-19T05:57:00Z</time>
      </trkpt>
      <trkpt lat="42.80271" lon="0.1417">
        <ele>2441.885986</ele>
        <time>2012-05-19T05:57:13Z</time>
      </trkpt>
      <trkpt lat="42.80263" lon="0.14176">
        <ele>2439.001953</ele>
        <time>2012-05-19T05:57:22Z</time>
      </trkpt>
      <trkpt lat="42.80261" lon="0.14176">
        <ele>2438.521484</ele>
        <time>2012-05-19T05:57:39Z</time>
      </trkpt>
      <trkpt lat="42.80262" lon="0.14172">
        <ele>2439.963379</ele>
        <time>2012-05-19T05:57:42Z</time>
      </trkpt>
      <trkpt lat="42.80261" lon="0.14161">
        <ele>2444.77002</ele>
        <time>2012-05-19T05:57:55Z</time>
      </trkpt>
      <trkpt lat="42.8026" lon="0.14152">
        <ele>2444.77002</ele>
        <time>2012-05-19T05:58:05Z</time>
      </trkpt>
      <trkpt lat="42.80262" lon="0.14141">
        <ele>2445.731445</ele>
        <time>2012-05-19T05:58:17Z</time>
      </trkpt>
      <trkpt lat="42.80263" lon="0.14131">
        <ele>2444.77002</ele>
        <time>2012-05-19T05:58:34Z</time>
      </trkpt>
      <trkpt lat="42.80267" lon="0.14119">
        <ele>2446.212158</ele>
        <time>2012-05-19T05:58:46Z</time>
      </trkpt>
      <trkpt lat="42.8027" lon="0.14105">
        <ele>2449.57666</ele>
        <time>2012-05-19T05:59:01Z</time>
      </trkpt>
      <trkpt lat="42.80271" lon="0.14102">
        <ele>2449.095947</ele>
        <time>2012-05-19T05:59:04Z</time>
      </trkpt>
      <trkpt lat="42.80271" lon="0.14097">
        <ele>2450.537842</ele>
        <time>2012-05-19T05:59:08Z</time>
      </trkpt>
      <trkpt lat="42.8027" lon="0.14088">
        <ele>2451.499268</ele>
        <time>2012-05-19T05:59:27Z</time>
      </trkpt>
      <trkpt lat="42.8027" lon="0.14088">
        <ele>2451.499268</ele>
        <time>2012-05-19T05:59:28Z</time>
      </trkpt>
      <trkpt lat="42.80266" lon="0.14092">
        <ele>2455.824951</ele>
        <time>2012-05-19T05:59:43Z</time>
      </trkpt>
      <trkpt lat="42.80262" lon="0.14095">
        <ele>2457.747803</ele>
        <time>2012-05-19T05:59:52Z</time>
      </trkpt>
      <trkpt lat="42.80259" lon="0.14097">
        <ele>2458.228271</ele>
        <time>2012-05-19T05:59:55Z</time>
      </trkpt>
      <trkpt lat="42.80258" lon="0.14098">
        <ele>2459.189697</ele>
        <time>2012-05-19T05:59:58Z</time>
      </trkpt>
      <trkpt lat="42.80256" lon="0.14099">
        <ele>2458.228271</ele>
        <time>2012-05-19T06:00:10Z</time>
      </trkpt>
      <trkpt lat="42.80257" lon="0.14092">
        <ele>2459.670166</ele>
        <time>2012-05-19T06:00:23Z</time>
      </trkpt>
      <trkpt lat="42.80258" lon="0.14084">
        <ele>2461.112549</ele>
        <time>2012-05-19T06:00:37Z</time>
      </trkpt>
      <trkpt lat="42.80257" lon="0.14071">
        <ele>2462.07373</ele>
        <time>2012-05-19T06:00:49Z</time>
      </trkpt>
      <trkpt lat="42.80257" lon="0.1407">
        <ele>2462.554443</ele>
        <time>2012-05-19T06:01:03Z</time>
      </trkpt>
      <trkpt lat="42.80256" lon="0.14074">
        <ele>2463.035156</ele>
        <time>2012-05-19T06:01:07Z</time>
      </trkpt>
      <trkpt lat="42.80252" lon="0.14078">
        <ele>2464.957764</ele>
        <time>2012-05-19T06:01:16Z</time>
      </trkpt>
      <trkpt lat="42.80245" lon="0.14083">
        <ele>2466.880371</ele>
        <time>2012-05-19T06:01:35Z</time>
      </trkpt>
      <trkpt lat="42.80243" lon="0.14088">
        <ele>2469.76416</ele>
        <time>2012-05-19T06:01:50Z</time>
      </trkpt>
      <trkpt lat="42.80242" lon="0.14087">
        <ele>2469.283691</ele>
        <time>2012-05-19T06:01:59Z</time>
      </trkpt>
      <trkpt lat="42.80242" lon="0.14083">
        <ele>2469.76416</ele>
        <time>2012-05-19T06:02:02Z</time>
      </trkpt>
      <trkpt lat="42.80244" lon="0.14071">
        <ele>2470.725586</ele>
        <time>2012-05-19T06:02:16Z</time>
      </trkpt>
      <trkpt lat="42.80244" lon="0.14071">
        <ele>2470.725586</ele>
        <time>2012-05-19T06:02:17Z</time>
      </trkpt>
      <trkpt lat="42.80245" lon="0.14066">
        <ele>2471.206055</ele>
        <time>2012-05-19T06:02:28Z</time>
      </trkpt>
      <trkpt lat="42.80245" lon="0.14061">
        <ele>2472.16748</ele>
        <time>2012-05-19T06:02:36Z</time>
      </trkpt>
      <trkpt lat="42.80245" lon="0.14059">
        <ele>2472.648193</ele>
        <time>2012-05-19T06:02:53Z</time>
      </trkpt>
      <trkpt lat="42.80245" lon="0.14058">
        <ele>2473.128906</ele>
        <time>2012-05-19T06:03:14Z</time>
      </trkpt>
      <trkpt lat="42.80245" lon="0.14054">
        <ele>2473.609375</ele>
        <time>2012-05-19T06:03:33Z</time>
      </trkpt>
      <trkpt lat="42.80246" lon="0.1405">
        <ele>2474.090088</ele>
        <time>2012-05-19T06:03:39Z</time>
      </trkpt>
      <trkpt lat="42.80246" lon="0.14046">
        <ele>2475.05127</ele>
        <time>2012-05-19T06:03:44Z</time>
      </trkpt>
      <trkpt lat="42.80247" lon="0.14035">
        <ele>2476.974365</ele>
        <time>2012-05-19T06:04:01Z</time>
      </trkpt>
      <trkpt lat="42.80249" lon="0.14026">
        <ele>2477.454834</ele>
        <time>2012-05-19T06:04:18Z</time>
      </trkpt>
      <trkpt lat="42.80246" lon="0.14022">
        <ele>2481.780762</ele>
        <time>2012-05-19T06:04:35Z</time>
      </trkpt>
      <trkpt lat="42.80247" lon="0.14016">
        <ele>2482.261475</ele>
        <time>2012-05-19T06:04:51Z</time>
      </trkpt>
      <trkpt lat="42.80249" lon="0.14015">
        <ele>2481.780762</ele>
        <time>2012-05-19T06:05:15Z</time>
      </trkpt>
      <trkpt lat="42.80248" lon="0.14015">
        <ele>2481.780762</ele>
        <time>2012-05-19T06:05:44Z</time>
      </trkpt>
      <trkpt lat="42.80248" lon="0.14015">
        <ele>2481.780762</ele>
        <time>2012-05-19T06:05:50Z</time>
      </trkpt>
      <trkpt lat="42.80249" lon="0.14008">
        <ele>2483.222656</ele>
        <time>2012-05-19T06:06:06Z</time>
      </trkpt>
      <trkpt lat="42.80248" lon="0.13995">
        <ele>2486.587158</ele>
        <time>2012-05-19T06:06:19Z</time>
      </trkpt>
      <trkpt lat="42.80246" lon="0.13979">
        <ele>2490.432373</ele>
        <time>2012-05-19T06:06:39Z</time>
      </trkpt>
      <trkpt lat="42.80247" lon="0.13972">
        <ele>2491.874512</ele>
        <time>2012-05-19T06:06:49Z</time>
      </trkpt>
      <trkpt lat="42.80248" lon="0.13967">
        <ele>2492.835938</ele>
        <time>2012-05-19T06:07:07Z</time>
      </trkpt>
      <trkpt lat="42.80248" lon="0.13968">
        <ele>2493.31665</ele>
        <time>2012-05-19T06:07:17Z</time>
      </trkpt>
      <trkpt lat="42.80241" lon="0.13977">
        <ele>2495.719971</ele>
        <time>2012-05-19T06:07:34Z</time>
      </trkpt>
      <trkpt lat="42.8024" lon="0.13978">
        <ele>2496.681152</ele>
        <time>2012-05-19T06:07:51Z</time>
      </trkpt>
      <trkpt lat="42.8024" lon="0.13974">
        <ele>2496.200684</ele>
        <time>2012-05-19T06:07:59Z</time>
      </trkpt>
      <trkpt lat="42.80241" lon="0.13961">
        <ele>2497.161865</ele>
        <time>2012-05-19T06:08:17Z</time>
      </trkpt>
      <trkpt lat="42.80244" lon="0.13955">
        <ele>2500.045898</ele>
        <time>2012-05-19T06:08:33Z</time>
      </trkpt>
      <trkpt lat="42.80244" lon="0.13952">
        <ele>2501.00708</ele>
        <time>2012-05-19T06:08:56Z</time>
      </trkpt>
      <trkpt lat="42.80242" lon="0.13939">
        <ele>2505.333008</ele>
        <time>2012-05-19T06:09:15Z</time>
      </trkpt>
      <trkpt lat="42.8024" lon="0.13936">
        <ele>2506.294189</ele>
        <time>2012-05-19T06:09:23Z</time>
      </trkpt>
      <trkpt lat="42.80238" lon="0.13933">
        <ele>2506.774902</ele>
        <time>2012-05-19T06:09:37Z</time>
      </trkpt>
      <trkpt lat="42.80238" lon="0.13932">
        <ele>2506.774902</ele>
        <time>2012-05-19T06:10:09Z</time>
      </trkpt>
      <trkpt lat="42.80238" lon="0.13932">
        <ele>2507.255615</ele>
        <time>2012-05-19T06:10:30Z</time>
      </trkpt>
      <trkpt lat="42.80235" lon="0.13927">
        <ele>2509.658936</ele>
        <time>2012-05-19T06:10:41Z</time>
      </trkpt>
      <trkpt lat="42.80229" lon="0.13919">
        <ele>2512.542969</ele>
        <time>2012-05-19T06:10:56Z</time>
      </trkpt>
      <trkpt lat="42.80222" lon="0.13912">
        <ele>2516.388184</ele>
        <time>2012-05-19T06:11:08Z</time>
      </trkpt>
      <trkpt lat="42.80219" lon="0.13907">
        <ele>2517.349365</ele>
        <time>2012-05-19T06:11:22Z</time>
      </trkpt>
      <trkpt lat="42.80214" lon="0.13893">
        <ele>2516.868896</ele>
        <time>2012-05-19T06:11:38Z</time>
      </trkpt>
      <trkpt lat="42.80212" lon="0.13883">
        <ele>2519.752686</ele>
        <time>2012-05-19T06:11:51Z</time>
      </trkpt>
      <trkpt lat="42.80212" lon="0.13874">
        <ele>2519.272217</ele>
        <time>2012-05-19T06:12:09Z</time>
      </trkpt>
      <trkpt lat="42.80213" lon="0.13872">
        <ele>2519.752686</ele>
        <time>2012-05-19T06:12:27Z</time>
      </trkpt>
      <trkpt lat="42.80215" lon="0.13866">
        <ele>2519.752686</ele>
        <time>2012-05-19T06:12:52Z</time>
      </trkpt>
      <trkpt lat="42.80212" lon="0.13858">
        <ele>2520.714111</ele>
        <time>2012-05-19T06:13:09Z</time>
      </trkpt>
      <trkpt lat="42.80213" lon="0.13848">
        <ele>2521.19458</ele>
        <time>2012-05-19T06:13:23Z</time>
      </trkpt>
      <trkpt lat="42.80213" lon="0.13847">
        <ele>2521.675293</ele>
        <time>2012-05-19T06:13:58Z</time>
      </trkpt>
      <trkpt lat="42.80213" lon="0.13846">
        <ele>2522.156006</ele>
        <time>2012-05-19T06:14:11Z</time>
      </trkpt>
      <trkpt lat="42.80212" lon="0.13843">
        <ele>2522.156006</ele>
        <time>2012-05-19T06:14:27Z</time>
      </trkpt>
      <trkpt lat="42.80208" lon="0.13833">
        <ele>2527.924072</ele>
        <time>2012-05-19T06:14:41Z</time>
      </trkpt>
      <trkpt lat="42.80206" lon="0.13822">
        <ele>2531.769287</ele>
        <time>2012-05-19T06:14:53Z</time>
      </trkpt>
      <trkpt lat="42.80201" lon="0.13814">
        <ele>2535.133789</ele>
        <time>2012-05-19T06:15:09Z</time>
      </trkpt>
      <trkpt lat="42.80197" lon="0.138">
        <ele>2534.65332</ele>
        <time>2012-05-19T06:15:24Z</time>
      </trkpt>
      <trkpt lat="42.80195" lon="0.13794">
        <ele>2534.172607</ele>
        <time>2012-05-19T06:15:31Z</time>
      </trkpt>
      <trkpt lat="42.8019" lon="0.13787">
        <ele>2535.133789</ele>
        <time>2012-05-19T06:15:40Z</time>
      </trkpt>
      <trkpt lat="42.80187" lon="0.13781">
        <ele>2536.575684</ele>
        <time>2012-05-19T06:15:50Z</time>
      </trkpt>
      <trkpt lat="42.80182" lon="0.13772">
        <ele>2538.017822</ele>
        <time>2012-05-19T06:16:01Z</time>
      </trkpt>
      <trkpt lat="42.8018" lon="0.13767">
        <ele>2539.94043</ele>
        <time>2012-05-19T06:16:07Z</time>
      </trkpt>
      <trkpt lat="42.80177" lon="0.13762">
        <ele>2541.863281</ele>
        <time>2012-05-19T06:16:13Z</time>
      </trkpt>
      <trkpt lat="42.80171" lon="0.13749">
        <ele>2543.305176</ele>
        <time>2012-05-19T06:16:27Z</time>
      </trkpt>
      <trkpt lat="42.80165" lon="0.13742">
        <ele>2543.305176</ele>
        <time>2012-05-19T06:16:39Z</time>
      </trkpt>
      <trkpt lat="42.80162" lon="0.13736">
        <ele>2545.227783</ele>
        <time>2012-05-19T06:16:55Z</time>
      </trkpt>
      <trkpt lat="42.8016" lon="0.1373">
        <ele>2545.708496</ele>
        <time>2012-05-19T06:17:02Z</time>
      </trkpt>
      <trkpt lat="42.80155" lon="0.13715">
        <ele>2545.708496</ele>
        <time>2012-05-19T06:17:19Z</time>
      </trkpt>
      <trkpt lat="42.80151" lon="0.13706">
        <ele>2545.227783</ele>
        <time>2012-05-19T06:17:29Z</time>
      </trkpt>
      <trkpt lat="42.80144" lon="0.13696">
        <ele>2547.150391</ele>
        <time>2012-05-19T06:17:41Z</time>
      </trkpt>
      <trkpt lat="42.8014" lon="0.1369">
        <ele>2547.150391</ele>
        <time>2012-05-19T06:17:49Z</time>
      </trkpt>
      <trkpt lat="42.80135" lon="0.13684">
        <ele>2549.072998</ele>
        <time>2012-05-19T06:17:57Z</time>
      </trkpt>
      <trkpt lat="42.80128" lon="0.1367">
        <ele>2552.918213</ele>
        <time>2012-05-19T06:18:12Z</time>
      </trkpt>
      <trkpt lat="42.80125" lon="0.13664">
        <ele>2554.360107</ele>
        <time>2012-05-19T06:18:18Z</time>
      </trkpt>
      <trkpt lat="42.80122" lon="0.13659">
        <ele>2554.84082</ele>
        <time>2012-05-19T06:18:23Z</time>
      </trkpt>
      <trkpt lat="42.80117" lon="0.13646">
        <ele>2554.84082</ele>
        <time>2012-05-19T06:18:40Z</time>
      </trkpt>
      <trkpt lat="42.80115" lon="0.13638">
        <ele>2554.360107</ele>
        <time>2012-05-19T06:18:54Z</time>
      </trkpt>
      <trkpt lat="42.80114" lon="0.13636">
        <ele>2553.879639</ele>
        <time>2012-05-19T06:18:56Z</time>
      </trkpt>
      <trkpt lat="42.80111" lon="0.13626">
        <ele>2557.725098</ele>
        <time>2012-05-19T06:19:09Z</time>
      </trkpt>
      <trkpt lat="42.80111" lon="0.13622">
        <ele>2557.725098</ele>
        <time>2012-05-19T06:19:27Z</time>
      </trkpt>
      <trkpt lat="42.8011" lon="0.13612">
        <ele>2558.205566</ele>
        <time>2012-05-19T06:19:45Z</time>
      </trkpt>
      <trkpt lat="42.80106" lon="0.13596">
        <ele>2562.050781</ele>
        <time>2012-05-19T06:20:00Z</time>
      </trkpt>
      <trkpt lat="42.80104" lon="0.13585">
        <ele>2561.570312</ele>
        <time>2012-05-19T06:20:21Z</time>
      </trkpt>
      <trkpt lat="42.80103" lon="0.13577">
        <ele>2562.050781</ele>
        <time>2012-05-19T06:20:49Z</time>
      </trkpt>
      <trkpt lat="42.801" lon="0.13565">
        <ele>2563.012207</ele>
        <time>2012-05-19T06:21:07Z</time>
      </trkpt>
      <trkpt lat="42.80095" lon="0.1355">
        <ele>2567.337891</ele>
        <time>2012-05-19T06:21:24Z</time>
      </trkpt>
      <trkpt lat="42.80094" lon="0.13543">
        <ele>2570.221924</ele>
        <time>2012-05-19T06:21:32Z</time>
      </trkpt>
      <trkpt lat="42.80098" lon="0.13531">
        <ele>2571.663818</ele>
        <time>2012-05-19T06:21:52Z</time>
      </trkpt>
      <trkpt lat="42.801" lon="0.13527">
        <ele>2573.58667</ele>
        <time>2012-05-19T06:22:12Z</time>
      </trkpt>
      <trkpt lat="42.801" lon="0.13526">
        <ele>2573.58667</ele>
        <time>2012-05-19T06:22:27Z</time>
      </trkpt>
      <trkpt lat="42.80098" lon="0.13523">
        <ele>2575.028564</ele>
        <time>2012-05-19T06:22:30Z</time>
      </trkpt>
      <trkpt lat="42.8009" lon="0.13518">
        <ele>2577.912598</ele>
        <time>2012-05-19T06:22:46Z</time>
      </trkpt>
      <trkpt lat="42.80092" lon="0.13516">
        <ele>2578.393311</ele>
        <time>2012-05-19T06:23:05Z</time>
      </trkpt>
      <trkpt lat="42.80092" lon="0.13515">
        <ele>2578.393311</ele>
        <time>2012-05-19T06:23:06Z</time>
      </trkpt>
      <trkpt lat="42.80098" lon="0.13509">
        <ele>2579.354492</ele>
        <time>2012-05-19T06:23:14Z</time>
      </trkpt>
      <trkpt lat="42.80104" lon="0.135">
        <ele>2582.238525</ele>
        <time>2012-05-19T06:23:28Z</time>
      </trkpt>
      <trkpt lat="42.80107" lon="0.13489">
        <ele>2585.603027</ele>
        <time>2012-05-19T06:23:44Z</time>
      </trkpt>
      <trkpt lat="42.80108" lon="0.13485">
        <ele>2586.08374</ele>
        <time>2012-05-19T06:23:50Z</time>
      </trkpt>
      <trkpt lat="42.80112" lon="0.13481">
        <ele>2586.08374</ele>
        <time>2012-05-19T06:23:55Z</time>
      </trkpt>
      <trkpt lat="42.80117" lon="0.13478">
        <ele>2585.603027</ele>
        <time>2012-05-19T06:24:12Z</time>
      </trkpt>
      <trkpt lat="42.80122" lon="0.13471">
        <ele>2586.564209</ele>
        <time>2012-05-19T06:24:45Z</time>
      </trkpt>
      <trkpt lat="42.80128" lon="0.13466">
        <ele>2590.890381</ele>
        <time>2012-05-19T06:24:57Z</time>
      </trkpt>
      <trkpt lat="42.80129" lon="0.13466">
        <ele>2591.371094</ele>
        <time>2012-05-19T06:25:15Z</time>
      </trkpt>
      <trkpt lat="42.8013" lon="0.13466">
        <ele>2590.409668</ele>
        <time>2012-05-19T06:26:11Z</time>
      </trkpt>
      <trkpt lat="42.8013" lon="0.13463">
        <ele>2590.409668</ele>
        <time>2012-05-19T06:26:36Z</time>
      </trkpt>
      <trkpt lat="42.80128" lon="0.1346">
        <ele>2590.409668</ele>
        <time>2012-05-19T06:26:49Z</time>
      </trkpt>
      <trkpt lat="42.80123" lon="0.13454">
        <ele>2593.293701</ele>
        <time>2012-05-19T06:27:11Z</time>
      </trkpt>
      <trkpt lat="42.80121" lon="0.13447">
        <ele>2596.177734</ele>
        <time>2012-05-19T06:27:28Z</time>
      </trkpt>
      <trkpt lat="42.80111" lon="0.13449">
        <ele>2599.061523</ele>
        <time>2012-05-19T06:27:45Z</time>
      </trkpt>
      <trkpt lat="42.80108" lon="0.13444">
        <ele>2603.387207</ele>
        <time>2012-05-19T06:28:02Z</time>
      </trkpt>
      <trkpt lat="42.80103" lon="0.1344">
        <ele>2604.829102</ele>
        <time>2012-05-19T06:28:19Z</time>
      </trkpt>
      <trkpt lat="42.801" lon="0.13435">
        <ele>2607.232422</ele>
        <time>2012-05-19T06:28:38Z</time>
      </trkpt>
      <trkpt lat="42.801" lon="0.1343">
        <ele>2609.155273</ele>
        <time>2012-05-19T06:28:55Z</time>
      </trkpt>
      <trkpt lat="42.80095" lon="0.13428">
        <ele>2611.077637</ele>
        <time>2012-05-19T06:29:09Z</time>
      </trkpt>
      <trkpt lat="42.8009" lon="0.13426">
        <ele>2613.962402</ele>
        <time>2012-05-19T06:29:27Z</time>
      </trkpt>
      <trkpt lat="42.80089" lon="0.13424">
        <ele>2615.884766</ele>
        <time>2012-05-19T06:29:39Z</time>
      </trkpt>
      <trkpt lat="42.80086" lon="0.13416">
        <ele>2618.288086</ele>
        <time>2012-05-19T06:29:56Z</time>
      </trkpt>
      <trkpt lat="42.80084" lon="0.13415">
        <ele>2619.72998</ele>
        <time>2012-05-19T06:30:12Z</time>
      </trkpt>
      <trkpt lat="42.80081" lon="0.13412">
        <ele>2622.61377</ele>
        <time>2012-05-19T06:30:39Z</time>
      </trkpt>
      <trkpt lat="42.80077" lon="0.13415">
        <ele>2625.498047</ele>
        <time>2012-05-19T06:30:53Z</time>
      </trkpt>
      <trkpt lat="42.80074" lon="0.13411">
        <ele>2626.939941</ele>
        <time>2012-05-19T06:31:04Z</time>
      </trkpt>
      <trkpt lat="42.80071" lon="0.13413">
        <ele>2628.381836</ele>
        <time>2012-05-19T06:31:08Z</time>
      </trkpt>
      <trkpt lat="42.80068" lon="0.13407">
        <ele>2631.746582</ele>
        <time>2012-05-19T06:31:23Z</time>
      </trkpt>
      <trkpt lat="42.80066" lon="0.13402">
        <ele>2634.630371</ele>
        <time>2012-05-19T06:31:38Z</time>
      </trkpt>
      <trkpt lat="42.80062" lon="0.13399">
        <ele>2637.033691</ele>
        <time>2012-05-19T06:31:53Z</time>
      </trkpt>
      <trkpt lat="42.80062" lon="0.13394">
        <ele>2639.437012</ele>
        <time>2012-05-19T06:32:08Z</time>
      </trkpt>
      <trkpt lat="42.80059" lon="0.13392">
        <ele>2641.839844</ele>
        <time>2012-05-19T06:32:42Z</time>
      </trkpt>
      <trkpt lat="42.80056" lon="0.13392">
        <ele>2645.205078</ele>
        <time>2012-05-19T06:32:58Z</time>
      </trkpt>
      <trkpt lat="42.8005" lon="0.13387">
        <ele>2648.088867</ele>
        <time>2012-05-19T06:33:18Z</time>
      </trkpt>
      <trkpt lat="42.80049" lon="0.13387">
        <ele>2648.569824</ele>
        <time>2012-05-19T06:33:37Z</time>
      </trkpt>
      <trkpt lat="42.80045" lon="0.13384">
        <ele>2652.415039</ele>
        <time>2012-05-19T06:33:57Z</time>
      </trkpt>
      <trkpt lat="42.80041" lon="0.13377">
        <ele>2656.260254</ele>
        <time>2012-05-19T06:34:14Z</time>
      </trkpt>
      <trkpt lat="42.80041" lon="0.13374">
        <ele>2656.740723</ele>
        <time>2012-05-19T06:34:42Z</time>
      </trkpt>
      <trkpt lat="42.8004" lon="0.13371">
        <ele>2657.702148</ele>
        <time>2012-05-19T06:35:34Z</time>
      </trkpt>
      <trkpt lat="42.8004" lon="0.1337">
        <ele>2658.182617</ele>
        <time>2012-05-19T06:36:01Z</time>
      </trkpt>
      <trkpt lat="42.80039" lon="0.13369">
        <ele>2658.182617</ele>
        <time>2012-05-19T06:36:47Z</time>
      </trkpt>
      <trkpt lat="42.80039" lon="0.13368">
        <ele>2658.663086</ele>
        <time>2012-05-19T06:37:06Z</time>
      </trkpt>
      <trkpt lat="42.80039" lon="0.13364">
        <ele>2659.144043</ele>
        <time>2012-05-19T06:37:15Z</time>
      </trkpt>
      <trkpt lat="42.80039" lon="0.13361">
        <ele>2661.066406</ele>
        <time>2012-05-19T06:37:25Z</time>
      </trkpt>
      <trkpt lat="42.80027" lon="0.1336">
        <ele>2664.431152</ele>
        <time>2012-05-19T06:37:40Z</time>
      </trkpt>
      <trkpt lat="42.80019" lon="0.13359">
        <ele>2665.873047</ele>
        <time>2012-05-19T06:37:58Z</time>
      </trkpt>
      <trkpt lat="42.80019" lon="0.13358">
        <ele>2665.873047</ele>
        <time>2012-05-19T06:38:02Z</time>
      </trkpt>
      <trkpt lat="42.8002" lon="0.13353">
        <ele>2667.795898</ele>
        <time>2012-05-19T06:38:10Z</time>
      </trkpt>
      <trkpt lat="42.80019" lon="0.13351">
        <ele>2669.237793</ele>
        <time>2012-05-19T06:38:12Z</time>
      </trkpt>
      <trkpt lat="42.8002" lon="0.13342">
        <ele>2670.679688</ele>
        <time>2012-05-19T06:38:25Z</time>
      </trkpt>
      <trkpt lat="42.80021" lon="0.13337">
        <ele>2673.083008</ele>
        <time>2012-05-19T06:38:43Z</time>
      </trkpt>
      <trkpt lat="42.80024" lon="0.13328">
        <ele>2677.40918</ele>
        <time>2012-05-19T06:38:58Z</time>
      </trkpt>
      <trkpt lat="42.80028" lon="0.13319">
        <ele>2678.370605</ele>
        <time>2012-05-19T06:39:11Z</time>
      </trkpt>
      <trkpt lat="42.8003" lon="0.13313">
        <ele>2680.773926</ele>
        <time>2012-05-19T06:39:32Z</time>
      </trkpt>
      <trkpt lat="42.80032" lon="0.1331">
        <ele>2682.21582</ele>
        <time>2012-05-19T06:39:38Z</time>
      </trkpt>
      <trkpt lat="42.8003" lon="0.13307">
        <ele>2682.696289</ele>
        <time>2012-05-19T06:40:00Z</time>
      </trkpt>
      <trkpt lat="42.80027" lon="0.13306">
        <ele>2684.138184</ele>
        <time>2012-05-19T06:40:08Z</time>
      </trkpt>
      <trkpt lat="42.80013" lon="0.13305">
        <ele>2686.061035</ele>
        <time>2012-05-19T06:40:28Z</time>
      </trkpt>
      <trkpt lat="42.80009" lon="0.13305">
        <ele>2686.541504</ele>
        <time>2012-05-19T06:40:33Z</time>
      </trkpt>
      <trkpt lat="42.80001" lon="0.13306">
        <ele>2687.50293</ele>
        <time>2012-05-19T06:40:52Z</time>
      </trkpt>
      <trkpt lat="42.8" lon="0.13309">
        <ele>2689.90625</ele>
        <time>2012-05-19T06:41:09Z</time>
      </trkpt>
      <trkpt lat="42.79993" lon="0.13309">
        <ele>2694.231934</ele>
        <time>2012-05-19T06:41:27Z</time>
      </trkpt>
      <trkpt lat="42.79988" lon="0.1331">
        <ele>2697.59668</ele>
        <time>2012-05-19T06:41:41Z</time>
      </trkpt>
      <trkpt lat="42.79982" lon="0.13312">
        <ele>2700</ele>
        <time>2012-05-19T06:41:55Z</time>
      </trkpt>
      <trkpt lat="42.79977" lon="0.13313">
        <ele>2702.40332</ele>
        <time>2012-05-19T06:42:10Z</time>
      </trkpt>
      <trkpt lat="42.79977" lon="0.13308">
        <ele>2704.806152</ele>
        <time>2012-05-19T06:42:30Z</time>
      </trkpt>
      <trkpt lat="42.79976" lon="0.13299">
        <ele>2709.132812</ele>
        <time>2012-05-19T06:42:41Z</time>
      </trkpt>
      <trkpt lat="42.79977" lon="0.13287">
        <ele>2712.49707</ele>
        <time>2012-05-19T06:42:54Z</time>
      </trkpt>
      <trkpt lat="42.79977" lon="0.13279">
        <ele>2715.381348</ele>
        <time>2012-05-19T06:43:09Z</time>
      </trkpt>
      <trkpt lat="42.79979" lon="0.13271">
        <ele>2717.303711</ele>
        <time>2012-05-19T06:43:25Z</time>
      </trkpt>
      <trkpt lat="42.79981" lon="0.13265">
        <ele>2718.265137</ele>
        <time>2012-05-19T06:43:30Z</time>
      </trkpt>
      <trkpt lat="42.79984" lon="0.13257">
        <ele>2719.707031</ele>
        <time>2012-05-19T06:43:50Z</time>
      </trkpt>
      <trkpt lat="42.79984" lon="0.13257">
        <ele>2719.707031</ele>
        <time>2012-05-19T06:44:10Z</time>
      </trkpt>
      <trkpt lat="42.7998" lon="0.13256">
        <ele>2722.59082</ele>
        <time>2012-05-19T06:44:24Z</time>
      </trkpt>
      <trkpt lat="42.79968" lon="0.13255">
        <ele>2724.513672</ele>
        <time>2012-05-19T06:44:41Z</time>
      </trkpt>
      <trkpt lat="42.79966" lon="0.13254">
        <ele>2726.436035</ele>
        <time>2012-05-19T06:44:48Z</time>
      </trkpt>
      <trkpt lat="42.79953" lon="0.13253">
        <ele>2729.320312</ele>
        <time>2012-05-19T06:45:08Z</time>
      </trkpt>
      <trkpt lat="42.79952" lon="0.13253">
        <ele>2730.28125</ele>
        <time>2012-05-19T06:45:10Z</time>
      </trkpt>
      <trkpt lat="42.79943" lon="0.13253">
        <ele>2731.242676</ele>
        <time>2012-05-19T06:45:31Z</time>
      </trkpt>
      <trkpt lat="42.79939" lon="0.13254">
        <ele>2733.645996</ele>
        <time>2012-05-19T06:45:45Z</time>
      </trkpt>
      <trkpt lat="42.79939" lon="0.13252">
        <ele>2734.607422</ele>
        <time>2012-05-19T06:45:52Z</time>
      </trkpt>
      <trkpt lat="42.79942" lon="0.13243">
        <ele>2737.010742</ele>
        <time>2012-05-19T06:46:04Z</time>
      </trkpt>
      <trkpt lat="42.79947" lon="0.13234">
        <ele>2739.414062</ele>
        <time>2012-05-19T06:46:25Z</time>
      </trkpt>
      <trkpt lat="42.79953" lon="0.13219">
        <ele>2742.29834</ele>
        <time>2012-05-19T06:46:44Z</time>
      </trkpt>
      <trkpt lat="42.79957" lon="0.13206">
        <ele>2746.624023</ele>
        <time>2012-05-19T06:47:00Z</time>
      </trkpt>
      <trkpt lat="42.79962" lon="0.13199">
        <ele>2749.027344</ele>
        <time>2012-05-19T06:47:18Z</time>
      </trkpt>
      <trkpt lat="42.79969" lon="0.13191">
        <ele>2751.430664</ele>
        <time>2012-05-19T06:47:33Z</time>
      </trkpt>
      <trkpt lat="42.7997" lon="0.13189">
        <ele>2751.911133</ele>
        <time>2012-05-19T06:47:38Z</time>
      </trkpt>
      <trkpt lat="42.79977" lon="0.13177">
        <ele>2754.314453</ele>
        <time>2012-05-19T06:47:52Z</time>
      </trkpt>
      <trkpt lat="42.79983" lon="0.13166">
        <ele>2756.717773</ele>
        <time>2012-05-19T06:48:08Z</time>
      </trkpt>
      <trkpt lat="42.79989" lon="0.13158">
        <ele>2758.159668</ele>
        <time>2012-05-19T06:48:21Z</time>
      </trkpt>
      <trkpt lat="42.79989" lon="0.13158">
        <ele>2758.159668</ele>
        <time>2012-05-19T06:48:52Z</time>
      </trkpt>
      <trkpt lat="42.79992" lon="0.13145">
        <ele>2761.043457</ele>
        <time>2012-05-19T06:49:09Z</time>
      </trkpt>
      <trkpt lat="42.79994" lon="0.13139">
        <ele>2764.408203</ele>
        <time>2012-05-19T06:49:22Z</time>
      </trkpt>
      <trkpt lat="42.79996" lon="0.13134">
        <ele>2766.330566</ele>
        <time>2012-05-19T06:49:35Z</time>
      </trkpt>
      <trkpt lat="42.79995" lon="0.13135">
        <ele>2766.811523</ele>
        <time>2012-05-19T06:49:52Z</time>
      </trkpt>
      <trkpt lat="42.79995" lon="0.13135">
        <ele>2766.811523</ele>
        <time>2012-05-19T06:49:57Z</time>
      </trkpt>
      <trkpt lat="42.79987" lon="0.13138">
        <ele>2767.772949</ele>
        <time>2012-05-19T06:50:14Z</time>
      </trkpt>
      <trkpt lat="42.7998" lon="0.13139">
        <ele>2769.695312</ele>
        <time>2012-05-19T06:50:22Z</time>
      </trkpt>
      <trkpt lat="42.79976" lon="0.1314">
        <ele>2771.137207</ele>
        <time>2012-05-19T06:50:26Z</time>
      </trkpt>
      <trkpt lat="42.79965" lon="0.13142">
        <ele>2772.57959</ele>
        <time>2012-05-19T06:50:44Z</time>
      </trkpt>
      <trkpt lat="42.79962" lon="0.13143">
        <ele>2772.57959</ele>
        <time>2012-05-19T06:51:03Z</time>
      </trkpt>
      <trkpt lat="42.79957" lon="0.13143">
        <ele>2774.98291</ele>
        <time>2012-05-19T06:51:28Z</time>
      </trkpt>
      <trkpt lat="42.79957" lon="0.13143">
        <ele>2774.98291</ele>
        <time>2012-05-19T06:51:37Z</time>
      </trkpt>
      <trkpt lat="42.7995" lon="0.13147">
        <ele>2774.502441</ele>
        <time>2012-05-19T06:51:55Z</time>
      </trkpt>
      <trkpt lat="42.79949" lon="0.13144">
        <ele>2776.905762</ele>
        <time>2012-05-19T06:52:13Z</time>
      </trkpt>
      <trkpt lat="42.7995" lon="0.13136">
        <ele>2779.309082</ele>
        <time>2012-05-19T06:52:18Z</time>
      </trkpt>
      <trkpt lat="42.79954" lon="0.13124">
        <ele>2782.192871</ele>
        <time>2012-05-19T06:52:33Z</time>
      </trkpt>
      <trkpt lat="42.79958" lon="0.13114">
        <ele>2786.038086</ele>
        <time>2012-05-19T06:52:47Z</time>
      </trkpt>
      <trkpt lat="42.79962" lon="0.13103">
        <ele>2787.47998</ele>
        <time>2012-05-19T06:53:02Z</time>
      </trkpt>
      <trkpt lat="42.79964" lon="0.13096">
        <ele>2790.844727</ele>
        <time>2012-05-19T06:53:18Z</time>
      </trkpt>
      <trkpt lat="42.79967" lon="0.13082">
        <ele>2792.76709</ele>
        <time>2012-05-19T06:53:32Z</time>
      </trkpt>
      <trkpt lat="42.79967" lon="0.13083">
        <ele>2793.248047</ele>
        <time>2012-05-19T06:54:05Z</time>
      </trkpt>
      <trkpt lat="42.7996" lon="0.13085">
        <ele>2796.131836</ele>
        <time>2012-05-19T06:54:23Z</time>
      </trkpt>
      <trkpt lat="42.79958" lon="0.13086">
        <ele>2797.092773</ele>
        <time>2012-05-19T06:54:26Z</time>
      </trkpt>
      <trkpt lat="42.79951" lon="0.13089">
        <ele>2799.015625</ele>
        <time>2012-05-19T06:54:44Z</time>
      </trkpt>
      <trkpt lat="42.79943" lon="0.13091">
        <ele>2801.899414</ele>
        <time>2012-05-19T06:55:00Z</time>
      </trkpt>
      <trkpt lat="42.79938" lon="0.13091">
        <ele>2803.341309</ele>
        <time>2012-05-19T06:55:14Z</time>
      </trkpt>
      <trkpt lat="42.79929" lon="0.13093">
        <ele>2806.226074</ele>
        <time>2012-05-19T06:55:29Z</time>
      </trkpt>
      <trkpt lat="42.79927" lon="0.13093">
        <ele>2806.226074</ele>
        <time>2012-05-19T06:55:44Z</time>
      </trkpt>
      <trkpt lat="42.79927" lon="0.13092">
        <ele>2806.706543</ele>
        <time>2012-05-19T06:56:18Z</time>
      </trkpt>
      <trkpt lat="42.79927" lon="0.13092">
        <ele>2806.706543</ele>
        <time>2012-05-19T06:56:28Z</time>
      </trkpt>
      <trkpt lat="42.79934" lon="0.1308">
        <ele>2809.109863</ele>
        <time>2012-05-19T06:56:45Z</time>
      </trkpt>
      <trkpt lat="42.79936" lon="0.13073">
        <ele>2811.993652</ele>
        <time>2012-05-19T06:56:58Z</time>
      </trkpt>
      <trkpt lat="42.7994" lon="0.13062">
        <ele>2816.319824</ele>
        <time>2012-05-19T06:57:13Z</time>
      </trkpt>
      <trkpt lat="42.79943" lon="0.13053">
        <ele>2819.203613</ele>
        <time>2012-05-19T06:57:31Z</time>
      </trkpt>
      <trkpt lat="42.79947" lon="0.13043">
        <ele>2820.164551</ele>
        <time>2012-05-19T06:57:48Z</time>
      </trkpt>
      <trkpt lat="42.79954" lon="0.13033">
        <ele>2823.529297</ele>
        <time>2012-05-19T06:58:06Z</time>
      </trkpt>
      <trkpt lat="42.79954" lon="0.13032">
        <ele>2824.490723</ele>
        <time>2012-05-19T06:58:31Z</time>
      </trkpt>
      <trkpt lat="42.79953" lon="0.13031">
        <ele>2825.452148</ele>
        <time>2012-05-19T06:59:00Z</time>
      </trkpt>
      <trkpt lat="42.7995" lon="0.13031">
        <ele>2828.335938</ele>
        <time>2012-05-19T06:59:17Z</time>
      </trkpt>
      <trkpt lat="42.79948" lon="0.13031">
        <ele>2828.816406</ele>
        <time>2012-05-19T06:59:43Z</time>
      </trkpt>
      <trkpt lat="42.79947" lon="0.13031">
        <ele>2828.816406</ele>
        <time>2012-05-19T07:00:19Z</time>
      </trkpt>
      <trkpt lat="42.79946" lon="0.13031">
        <ele>2828.816406</ele>
        <time>2012-05-19T07:00:41Z</time>
      </trkpt>
      <trkpt lat="42.79941" lon="0.1303">
        <ele>2829.297363</ele>
        <time>2012-05-19T07:01:17Z</time>
      </trkpt>
      <trkpt lat="42.79929" lon="0.13031">
        <ele>2833.623047</ele>
        <time>2012-05-19T07:01:32Z</time>
      </trkpt>
      <trkpt lat="42.79928" lon="0.13031">
        <ele>2834.103516</ele>
        <time>2012-05-19T07:01:43Z</time>
      </trkpt>
      <trkpt lat="42.79918" lon="0.13035">
        <ele>2836.988281</ele>
        <time>2012-05-19T07:02:00Z</time>
      </trkpt>
      <trkpt lat="42.79913" lon="0.13037">
        <ele>2839.87207</ele>
        <time>2012-05-19T07:02:06Z</time>
      </trkpt>
      <trkpt lat="42.79909" lon="0.13039">
        <ele>2841.794434</ele>
        <time>2012-05-19T07:02:11Z</time>
      </trkpt>
      <trkpt lat="42.79907" lon="0.13041">
        <ele>2842.755859</ele>
        <time>2012-05-19T07:02:14Z</time>
      </trkpt>
      <trkpt lat="42.79904" lon="0.13042">
        <ele>2843.717285</ele>
        <time>2012-05-19T07:02:17Z</time>
      </trkpt>
      <trkpt lat="42.79902" lon="0.13044">
        <ele>2844.197754</ele>
        <time>2012-05-19T07:02:20Z</time>
      </trkpt>
      <trkpt lat="42.79901" lon="0.13046">
        <ele>2843.717285</ele>
        <time>2012-05-19T07:02:43Z</time>
      </trkpt>
      <trkpt lat="42.799" lon="0.13049">
        <ele>2844.678711</ele>
        <time>2012-05-19T07:03:01Z</time>
      </trkpt>
      <trkpt lat="42.79897" lon="0.13051">
        <ele>2844.197754</ele>
        <time>2012-05-19T07:03:09Z</time>
      </trkpt>
      <trkpt lat="42.79893" lon="0.13054">
        <ele>2844.197754</ele>
        <time>2012-05-19T07:03:25Z</time>
      </trkpt>
      <trkpt lat="42.7989" lon="0.13056">
        <ele>2846.120605</ele>
        <time>2012-05-19T07:03:42Z</time>
      </trkpt>
      <trkpt lat="42.7989" lon="0.13055">
        <ele>2846.120605</ele>
        <time>2012-05-19T07:04:03Z</time>
      </trkpt>
      <trkpt lat="42.79891" lon="0.13049">
        <ele>2846.601074</ele>
        <time>2012-05-19T07:04:22Z</time>
      </trkpt>
      <trkpt lat="42.79891" lon="0.13048">
        <ele>2847.082031</ele>
        <time>2012-05-19T07:04:23Z</time>
      </trkpt>
      <trkpt lat="42.79891" lon="0.13046">
        <ele>2847.082031</ele>
        <time>2012-05-19T07:04:36Z</time>
      </trkpt>
      <trkpt lat="42.79887" lon="0.13049">
        <ele>2848.042969</ele>
        <time>2012-05-19T07:04:52Z</time>
      </trkpt>
      <trkpt lat="42.79883" lon="0.13051">
        <ele>2848.523926</ele>
        <time>2012-05-19T07:05:06Z</time>
      </trkpt>
      <trkpt lat="42.79883" lon="0.13051">
        <ele>2848.042969</ele>
        <time>2012-05-19T07:05:28Z</time>
      </trkpt>
      <trkpt lat="42.79883" lon="0.13051">
        <ele>2847.5625</ele>
        <time>2012-05-19T07:06:13Z</time>
      </trkpt>
      <trkpt lat="42.79883" lon="0.13051">
        <ele>2848.042969</ele>
        <time>2012-05-19T07:07:44Z</time>
      </trkpt>
      <trkpt lat="42.79884" lon="0.13052">
        <ele>2848.042969</ele>
        <time>2012-05-19T07:08:08Z</time>
      </trkpt>
      <trkpt lat="42.79881" lon="0.13054">
        <ele>2847.082031</ele>
        <time>2012-05-19T07:08:12Z</time>
      </trkpt>
      <trkpt lat="42.79875" lon="0.13057">
        <ele>2847.082031</ele>
        <time>2012-05-19T07:08:20Z</time>
      </trkpt>
      <trkpt lat="42.79873" lon="0.13059">
        <ele>2847.5625</ele>
        <time>2012-05-19T07:08:23Z</time>
      </trkpt>
      <trkpt lat="42.79871" lon="0.1306">
        <ele>2847.5625</ele>
        <time>2012-05-19T07:08:26Z</time>
      </trkpt>
      <trkpt lat="42.79867" lon="0.13063">
        <ele>2849.004395</ele>
        <time>2012-05-19T07:08:42Z</time>
      </trkpt>
      <trkpt lat="42.79859" lon="0.1307">
        <ele>2850.446289</ele>
        <time>2012-05-19T07:09:08Z</time>
      </trkpt>
      <trkpt lat="42.79854" lon="0.13074">
        <ele>2851.888184</ele>
        <time>2012-05-19T07:09:22Z</time>
      </trkpt>
      <trkpt lat="42.79848" lon="0.13079">
        <ele>2856.694824</ele>
        <time>2012-05-19T07:09:38Z</time>
      </trkpt>
      <trkpt lat="42.79839" lon="0.13087">
        <ele>2859.578613</ele>
        <time>2012-05-19T07:09:54Z</time>
      </trkpt>
      <trkpt lat="42.79838" lon="0.13086">
        <ele>2859.578613</ele>
        <time>2012-05-19T07:10:21Z</time>
      </trkpt>
      <trkpt lat="42.79833" lon="0.13091">
        <ele>2861.501465</ele>
        <time>2012-05-19T07:10:34Z</time>
      </trkpt>
      <trkpt lat="42.79826" lon="0.131">
        <ele>2862.462891</ele>
        <time>2012-05-19T07:10:49Z</time>
      </trkpt>
      <trkpt lat="42.79819" lon="0.13108">
        <ele>2864.865723</ele>
        <time>2012-05-19T07:11:08Z</time>
      </trkpt>
      <trkpt lat="42.79817" lon="0.1311">
        <ele>2867.75</ele>
        <time>2012-05-19T07:11:20Z</time>
      </trkpt>
      <trkpt lat="42.79817" lon="0.13109">
        <ele>2868.230957</ele>
        <time>2012-05-19T07:11:37Z</time>
      </trkpt>
      <trkpt lat="42.79817" lon="0.13108">
        <ele>2868.711426</ele>
        <time>2012-05-19T07:12:00Z</time>
      </trkpt>
      <trkpt lat="42.79817" lon="0.13107">
        <ele>2868.711426</ele>
        <time>2012-05-19T07:12:04Z</time>
      </trkpt>
      <trkpt lat="42.79815" lon="0.13091">
        <ele>2873.037598</ele>
        <time>2012-05-19T07:12:19Z</time>
      </trkpt>
      <trkpt lat="42.79815" lon="0.13085">
        <ele>2876.882812</ele>
        <time>2012-05-19T07:12:32Z</time>
      </trkpt>
      <trkpt lat="42.79815" lon="0.13071">
        <ele>2879.766602</ele>
        <time>2012-05-19T07:12:49Z</time>
      </trkpt>
      <trkpt lat="42.79817" lon="0.13053">
        <ele>2879.286133</ele>
        <time>2012-05-19T07:13:08Z</time>
      </trkpt>
      <trkpt lat="42.79818" lon="0.13048">
        <ele>2883.611816</ele>
        <time>2012-05-19T07:13:20Z</time>
      </trkpt>
      <trkpt lat="42.79821" lon="0.13036">
        <ele>2887.9375</ele>
        <time>2012-05-19T07:13:38Z</time>
      </trkpt>
      <trkpt lat="42.79823" lon="0.13027">
        <ele>2890.821777</ele>
        <time>2012-05-19T07:13:52Z</time>
      </trkpt>
      <trkpt lat="42.79823" lon="0.13026">
        <ele>2891.302246</ele>
        <time>2012-05-19T07:14:12Z</time>
      </trkpt>
      <trkpt lat="42.79824" lon="0.13026">
        <ele>2891.782715</ele>
        <time>2012-05-19T07:14:35Z</time>
      </trkpt>
      <trkpt lat="42.79821" lon="0.13028">
        <ele>2893.225098</ele>
        <time>2012-05-19T07:15:02Z</time>
      </trkpt>
      <trkpt lat="42.79819" lon="0.13029">
        <ele>2894.186035</ele>
        <time>2012-05-19T07:15:09Z</time>
      </trkpt>
      <trkpt lat="42.79812" lon="0.13031">
        <ele>2898.512207</ele>
        <time>2012-05-19T07:15:27Z</time>
      </trkpt>
      <trkpt lat="42.79813" lon="0.1303">
        <ele>2899.954102</ele>
        <time>2012-05-19T07:15:47Z</time>
      </trkpt>
      <trkpt lat="42.79814" lon="0.13027">
        <ele>2900.435059</ele>
        <time>2012-05-19T07:15:51Z</time>
      </trkpt>
      <trkpt lat="42.79818" lon="0.13013">
        <ele>2904.280273</ele>
        <time>2012-05-19T07:16:06Z</time>
      </trkpt>
      <trkpt lat="42.79819" lon="0.13009">
        <ele>2909.567383</ele>
        <time>2012-05-19T07:16:19Z</time>
      </trkpt>
      <trkpt lat="42.79822" lon="0.13">
        <ele>2917.257812</ele>
        <time>2012-05-19T07:16:33Z</time>
      </trkpt>
      <trkpt lat="42.79825" lon="0.12993">
        <ele>2916.777344</ele>
        <time>2012-05-19T07:16:50Z</time>
      </trkpt>
      <trkpt lat="42.79826" lon="0.12992">
        <ele>2916.777344</ele>
        <time>2012-05-19T07:17:11Z</time>
      </trkpt>
      <trkpt lat="42.79828" lon="0.12987">
        <ele>2917.257812</ele>
        <time>2012-05-19T07:17:28Z</time>
      </trkpt>
      <trkpt lat="42.79829" lon="0.12985">
        <ele>2917.73877</ele>
        <time>2012-05-19T07:17:47Z</time>
      </trkpt>
      <trkpt lat="42.79831" lon="0.1298">
        <ele>2919.180664</ele>
        <time>2012-05-19T07:18:01Z</time>
      </trkpt>
      <trkpt lat="42.79833" lon="0.12973">
        <ele>2918.219238</ele>
        <time>2012-05-19T07:18:15Z</time>
      </trkpt>
      <trkpt lat="42.79835" lon="0.12966">
        <ele>2920.141602</ele>
        <time>2012-05-19T07:18:27Z</time>
      </trkpt>
      <trkpt lat="42.79837" lon="0.1296">
        <ele>2922.544922</ele>
        <time>2012-05-19T07:18:39Z</time>
      </trkpt>
      <trkpt lat="42.79841" lon="0.1295">
        <ele>2925.909668</ele>
        <time>2012-05-19T07:18:55Z</time>
      </trkpt>
      <trkpt lat="42.79843" lon="0.12946">
        <ele>2925.909668</ele>
        <time>2012-05-19T07:19:23Z</time>
      </trkpt>
      <trkpt lat="42.79847" lon="0.1294">
        <ele>2928.793457</ele>
        <time>2012-05-19T07:19:39Z</time>
      </trkpt>
      <trkpt lat="42.79852" lon="0.12933">
        <ele>2929.274414</ele>
        <time>2012-05-19T07:19:52Z</time>
      </trkpt>
      <trkpt lat="42.79856" lon="0.12926">
        <ele>2932.63916</ele>
        <time>2012-05-19T07:20:08Z</time>
      </trkpt>
      <trkpt lat="42.79861" lon="0.12914">
        <ele>2935.04248</ele>
        <time>2012-05-19T07:20:23Z</time>
      </trkpt>
      <trkpt lat="42.79866" lon="0.12902">
        <ele>2936.003906</ele>
        <time>2012-05-19T07:20:39Z</time>
      </trkpt>
      <trkpt lat="42.79868" lon="0.12893">
        <ele>2938.407227</ele>
        <time>2012-05-19T07:20:57Z</time>
      </trkpt>
      <trkpt lat="42.79869" lon="0.12888">
        <ele>2941.771484</ele>
        <time>2012-05-19T07:21:21Z</time>
      </trkpt>
      <trkpt lat="42.79871" lon="0.12877">
        <ele>2943.213379</ele>
        <time>2012-05-19T07:21:35Z</time>
      </trkpt>
      <trkpt lat="42.79866" lon="0.12877">
        <ele>2946.578125</ele>
        <time>2012-05-19T07:21:48Z</time>
      </trkpt>
      <trkpt lat="42.79865" lon="0.12877">
        <ele>2945.616699</ele>
        <time>2012-05-19T07:22:11Z</time>
      </trkpt>
      <trkpt lat="42.79864" lon="0.12877">
        <ele>2945.616699</ele>
        <time>2012-05-19T07:22:49Z</time>
      </trkpt>
      <trkpt lat="42.79864" lon="0.12878">
        <ele>2945.616699</ele>
        <time>2012-05-19T07:23:11Z</time>
      </trkpt>
      <trkpt lat="42.79864" lon="0.12878">
        <ele>2945.616699</ele>
        <time>2012-05-19T07:23:57Z</time>
      </trkpt>
      <trkpt lat="42.79864" lon="0.12878">
        <ele>2945.616699</ele>
        <time>2012-05-19T07:24:33Z</time>
      </trkpt>
      <trkpt lat="42.79863" lon="0.12878">
        <ele>2945.616699</ele>
        <time>2012-05-19T07:24:54Z</time>
      </trkpt>
      <trkpt lat="42.79859" lon="0.12879">
        <ele>2947.539551</ele>
        <time>2012-05-19T07:25:14Z</time>
      </trkpt>
      <trkpt lat="42.7985" lon="0.12876">
        <ele>2950.42334</ele>
        <time>2012-05-19T07:25:30Z</time>
      </trkpt>
      <trkpt lat="42.79846" lon="0.1288">
        <ele>2953.307129</ele>
        <time>2012-05-19T07:25:41Z</time>
      </trkpt>
      <trkpt lat="42.79842" lon="0.12886">
        <ele>2954.268555</ele>
        <time>2012-05-19T07:25:49Z</time>
      </trkpt>
      <trkpt lat="42.79837" lon="0.12887">
        <ele>2955.710449</ele>
        <time>2012-05-19T07:26:07Z</time>
      </trkpt>
      <trkpt lat="42.79834" lon="0.12883">
        <ele>2957.152344</ele>
        <time>2012-05-19T07:26:34Z</time>
      </trkpt>
      <trkpt lat="42.7983" lon="0.12883">
        <ele>2958.594238</ele>
        <time>2012-05-19T07:26:51Z</time>
      </trkpt>
      <trkpt lat="42.79829" lon="0.12882">
        <ele>2960.036621</ele>
        <time>2012-05-19T07:27:08Z</time>
      </trkpt>
      <trkpt lat="42.79827" lon="0.12885">
        <ele>2960.997559</ele>
        <time>2012-05-19T07:27:19Z</time>
      </trkpt>
      <trkpt lat="42.79825" lon="0.12886">
        <ele>2961.478516</ele>
        <time>2012-05-19T07:27:34Z</time>
      </trkpt>
      <trkpt lat="42.79822" lon="0.12889">
        <ele>2963.881836</ele>
        <time>2012-05-19T07:27:52Z</time>
      </trkpt>
      <trkpt lat="42.79821" lon="0.1289">
        <ele>2964.362793</ele>
        <time>2012-05-19T07:28:12Z</time>
      </trkpt>
      <trkpt lat="42.79818" lon="0.1289">
        <ele>2966.285156</ele>
        <time>2012-05-19T07:28:28Z</time>
      </trkpt>
      <trkpt lat="42.79814" lon="0.12891">
        <ele>2969.169434</ele>
        <time>2012-05-19T07:28:44Z</time>
      </trkpt>
      <trkpt lat="42.79811" lon="0.12893">
        <ele>2970.130859</ele>
        <time>2012-05-19T07:29:06Z</time>
      </trkpt>
      <trkpt lat="42.79808" lon="0.12897">
        <ele>2972.533691</ele>
        <time>2012-05-19T07:29:25Z</time>
      </trkpt>
      <trkpt lat="42.79807" lon="0.12898">
        <ele>2973.014648</ele>
        <time>2012-05-19T07:29:46Z</time>
      </trkpt>
      <trkpt lat="42.79803" lon="0.12901">
        <ele>2972.533691</ele>
        <time>2012-05-19T07:29:55Z</time>
      </trkpt>
      <trkpt lat="42.79797" lon="0.12904">
        <ele>2972.053223</ele>
        <time>2012-05-19T07:30:10Z</time>
      </trkpt>
      <trkpt lat="42.79795" lon="0.12906">
        <ele>2972.053223</ele>
        <time>2012-05-19T07:30:27Z</time>
      </trkpt>
      <trkpt lat="42.79793" lon="0.12907">
        <ele>2972.533691</ele>
        <time>2012-05-19T07:30:50Z</time>
      </trkpt>
      <trkpt lat="42.79785" lon="0.12912">
        <ele>2973.975586</ele>
        <time>2012-05-19T07:31:07Z</time>
      </trkpt>
      <trkpt lat="42.7978" lon="0.12916">
        <ele>2973.975586</ele>
        <time>2012-05-19T07:31:28Z</time>
      </trkpt>
      <trkpt lat="42.79772" lon="0.1292">
        <ele>2974.456543</ele>
        <time>2012-05-19T07:31:46Z</time>
      </trkpt>
      <trkpt lat="42.7977" lon="0.12917">
        <ele>2974.937012</ele>
        <time>2012-05-19T07:32:02Z</time>
      </trkpt>
      <trkpt lat="42.79768" lon="0.12917">
        <ele>2975.417969</ele>
        <time>2012-05-19T07:32:24Z</time>
      </trkpt>
      <trkpt lat="42.79764" lon="0.12919">
        <ele>2976.859863</ele>
        <time>2012-05-19T07:32:34Z</time>
      </trkpt>
      <trkpt lat="42.7976" lon="0.1292">
        <ele>2979.263184</ele>
        <time>2012-05-19T07:32:55Z</time>
      </trkpt>
      <trkpt lat="42.7976" lon="0.1292">
        <ele>2979.263184</ele>
        <time>2012-05-19T07:32:56Z</time>
      </trkpt>
      <trkpt lat="42.79757" lon="0.12921">
        <ele>2980.705078</ele>
        <time>2012-05-19T07:33:12Z</time>
      </trkpt>
      <trkpt lat="42.79755" lon="0.12922">
        <ele>2981.666016</ele>
        <time>2012-05-19T07:33:29Z</time>
      </trkpt>
      <trkpt lat="42.7975" lon="0.12924">
        <ele>2982.627441</ele>
        <time>2012-05-19T07:33:46Z</time>
      </trkpt>
      <trkpt lat="42.79746" lon="0.12923">
        <ele>2984.550293</ele>
        <time>2012-05-19T07:34:02Z</time>
      </trkpt>
      <trkpt lat="42.79746" lon="0.12923">
        <ele>2985.030762</ele>
        <time>2012-05-19T07:34:30Z</time>
      </trkpt>
      <trkpt lat="42.79746" lon="0.12923">
        <ele>2985.030762</ele>
        <time>2012-05-19T07:34:51Z</time>
      </trkpt>
      <trkpt lat="42.79746" lon="0.12922">
        <ele>2984.550293</ele>
        <time>2012-05-19T07:35:49Z</time>
      </trkpt>
      <trkpt lat="42.79746" lon="0.12922">
        <ele>2985.030762</ele>
        <time>2012-05-19T07:36:16Z</time>
      </trkpt>
      <trkpt lat="42.79745" lon="0.12922">
        <ele>2985.992188</ele>
        <time>2012-05-19T07:36:36Z</time>
      </trkpt>
      <trkpt lat="42.79741" lon="0.12926">
        <ele>2986.472656</ele>
        <time>2012-05-19T07:36:50Z</time>
      </trkpt>
      <trkpt lat="42.79737" lon="0.12925">
        <ele>2989.356445</ele>
        <time>2012-05-19T07:37:07Z</time>
      </trkpt>
      <trkpt lat="42.79732" lon="0.12927">
        <ele>2990.798828</ele>
        <time>2012-05-19T07:37:17Z</time>
      </trkpt>
      <trkpt lat="42.79723" lon="0.12933">
        <ele>2994.644043</ele>
        <time>2012-05-19T07:37:35Z</time>
      </trkpt>
      <trkpt lat="42.7972" lon="0.12937">
        <ele>2997.52832</ele>
        <time>2012-05-19T07:37:53Z</time>
      </trkpt>
      <trkpt lat="42.79719" lon="0.12938">
        <ele>2998.008789</ele>
        <time>2012-05-19T07:38:14Z</time>
      </trkpt>
      <trkpt lat="42.79717" lon="0.12938">
        <ele>2998.008789</ele>
        <time>2012-05-19T07:38:48Z</time>
      </trkpt>
      <trkpt lat="42.79715" lon="0.12937">
        <ele>2998.489746</ele>
        <time>2012-05-19T07:39:04Z</time>
      </trkpt>
      <trkpt lat="42.79717" lon="0.12939">
        <ele>2998.008789</ele>
        <time>2012-05-19T07:39:57Z</time>
      </trkpt>
      <trkpt lat="42.79725" lon="0.12934">
        <ele>2996.566895</ele>
        <time>2012-05-19T07:40:16Z</time>
      </trkpt>
      <trkpt lat="42.79731" lon="0.1293">
        <ele>2993.202148</ele>
        <time>2012-05-19T07:40:32Z</time>
      </trkpt>
      <trkpt lat="42.79739" lon="0.12928">
        <ele>2994.163086</ele>
        <time>2012-05-19T07:40:49Z</time>
      </trkpt>
      <trkpt lat="42.79745" lon="0.12926">
        <ele>2993.202148</ele>
        <time>2012-05-19T07:41:07Z</time>
      </trkpt>
      <trkpt lat="42.79747" lon="0.12924">
        <ele>2992.721191</ele>
        <time>2012-05-19T07:41:24Z</time>
      </trkpt>
      <trkpt lat="42.79747" lon="0.12924">
        <ele>2992.240723</ele>
        <time>2012-05-19T07:41:44Z</time>
      </trkpt>
      <trkpt lat="42.79747" lon="0.12924">
        <ele>2991.759766</ele>
        <time>2012-05-19T07:43:17Z</time>
      </trkpt>
      <trkpt lat="42.79747" lon="0.12924">
        <ele>2991.759766</ele>
        <time>2012-05-19T07:44:20Z</time>
      </trkpt>
      <trkpt lat="42.79748" lon="0.12924">
        <ele>2991.279297</ele>
        <time>2012-05-19T07:46:08Z</time>
      </trkpt>
      <trkpt lat="42.79748" lon="0.12924">
        <ele>2991.759766</ele>
        <time>2012-05-19T07:46:42Z</time>
      </trkpt>
      <trkpt lat="42.79748" lon="0.12925">
        <ele>2991.759766</ele>
        <time>2012-05-19T07:48:41Z</time>
      </trkpt>
      <trkpt lat="42.79747" lon="0.12924">
        <ele>2993.202148</ele>
        <time>2012-05-19T07:49:37Z</time>
      </trkpt>
      <trkpt lat="42.79748" lon="0.12925">
        <ele>2993.202148</ele>
        <time>2012-05-19T07:50:02Z</time>
      </trkpt>
      <trkpt lat="42.79748" lon="0.12924">
        <ele>2993.202148</ele>
        <time>2012-05-19T07:50:48Z</time>
      </trkpt>
      <trkpt lat="42.79748" lon="0.12924">
        <ele>2993.682617</ele>
        <time>2012-05-19T07:51:15Z</time>
      </trkpt>
      <trkpt lat="42.79751" lon="0.12924">
        <ele>2993.202148</ele>
        <time>2012-05-19T07:51:33Z</time>
      </trkpt>
      <trkpt lat="42.79757" lon="0.12923">
        <ele>2990.798828</ele>
        <time>2012-05-19T07:51:41Z</time>
      </trkpt>
      <trkpt lat="42.79762" lon="0.12923">
        <ele>2988.395508</ele>
        <time>2012-05-19T07:51:45Z</time>
      </trkpt>
      <trkpt lat="42.79765" lon="0.12929">
        <ele>2985.030762</ele>
        <time>2012-05-19T07:51:52Z</time>
      </trkpt>
      <trkpt lat="42.79761" lon="0.12944">
        <ele>2980.224121</ele>
        <time>2012-05-19T07:51:59Z</time>
      </trkpt>
      <trkpt lat="42.79762" lon="0.12966">
        <ele>2971.572754</ele>
        <time>2012-05-19T07:52:05Z</time>
      </trkpt>
      <trkpt lat="42.79752" lon="0.12998">
        <ele>2964.362793</ele>
        <time>2012-05-19T07:52:21Z</time>
      </trkpt>
      <trkpt lat="42.79751" lon="0.13">
        <ele>2963.400879</ele>
        <time>2012-05-19T07:52:24Z</time>
      </trkpt>
      <trkpt lat="42.79752" lon="0.13002">
        <ele>2962.439941</ele>
        <time>2012-05-19T07:52:37Z</time>
      </trkpt>
      <trkpt lat="42.79751" lon="0.13003">
        <ele>2961.478516</ele>
        <time>2012-05-19T07:52:45Z</time>
      </trkpt>
      <trkpt lat="42.7975" lon="0.13008">
        <ele>2959.555664</ele>
        <time>2012-05-19T07:52:58Z</time>
      </trkpt>
      <trkpt lat="42.7975" lon="0.13009">
        <ele>2958.11377</ele>
        <time>2012-05-19T07:53:11Z</time>
      </trkpt>
      <trkpt lat="42.79749" lon="0.1301">
        <ele>2957.152344</ele>
        <time>2012-05-19T07:53:15Z</time>
      </trkpt>
      <trkpt lat="42.79737" lon="0.13026">
        <ele>2952.346191</ele>
        <time>2012-05-19T07:53:30Z</time>
      </trkpt>
      <trkpt lat="42.79724" lon="0.13045">
        <ele>2947.539551</ele>
        <time>2012-05-19T07:53:41Z</time>
      </trkpt>
      <trkpt lat="42.79724" lon="0.13045">
        <ele>2947.539551</ele>
        <time>2012-05-19T07:53:43Z</time>
      </trkpt>
      <trkpt lat="42.79719" lon="0.13083">
        <ele>2940.810547</ele>
        <time>2012-05-19T07:53:55Z</time>
      </trkpt>
      <trkpt lat="42.79729" lon="0.13079">
        <ele>2931.677734</ele>
        <time>2012-05-19T07:54:05Z</time>
      </trkpt>
      <trkpt lat="42.79738" lon="0.13069">
        <ele>2925.429199</ele>
        <time>2012-05-19T07:54:12Z</time>
      </trkpt>
      <trkpt lat="42.79743" lon="0.13074">
        <ele>2922.544922</ele>
        <time>2012-05-19T07:54:16Z</time>
      </trkpt>
      <trkpt lat="42.79745" lon="0.13114">
        <ele>2914.374023</ele>
        <time>2012-05-19T07:54:29Z</time>
      </trkpt>
      <trkpt lat="42.79766" lon="0.1308">
        <ele>2906.683594</ele>
        <time>2012-05-19T07:54:40Z</time>
      </trkpt>
      <trkpt lat="42.79781" lon="0.13084">
        <ele>2899.473145</ele>
        <time>2012-05-19T07:54:48Z</time>
      </trkpt>
      <trkpt lat="42.79784" lon="0.1308">
        <ele>2898.992676</ele>
        <time>2012-05-19T07:54:49Z</time>
      </trkpt>
      <trkpt lat="42.7979" lon="0.13072">
        <ele>2897.550781</ele>
        <time>2012-05-19T07:54:51Z</time>
      </trkpt>
      <trkpt lat="42.79802" lon="0.13055">
        <ele>2895.147461</ele>
        <time>2012-05-19T07:54:56Z</time>
      </trkpt>
      <trkpt lat="42.79822" lon="0.13058">
        <ele>2885.534668</ele>
        <time>2012-05-19T07:55:04Z</time>
      </trkpt>
      <trkpt lat="42.79829" lon="0.13064">
        <ele>2879.286133</ele>
        <time>2012-05-19T07:55:11Z</time>
      </trkpt>
      <trkpt lat="42.79839" lon="0.13066">
        <ele>2873.998535</ele>
        <time>2012-05-19T07:55:15Z</time>
      </trkpt>
      <trkpt lat="42.79852" lon="0.13048">
        <ele>2870.153809</ele>
        <time>2012-05-19T07:55:30Z</time>
      </trkpt>
      <trkpt lat="42.79853" lon="0.13047">
        <ele>2870.153809</ele>
        <time>2012-05-19T07:55:55Z</time>
      </trkpt>
      <trkpt lat="42.79867" lon="0.13036">
        <ele>2865.827148</ele>
        <time>2012-05-19T07:56:01Z</time>
      </trkpt>
      <trkpt lat="42.79869" lon="0.13034">
        <ele>2865.827148</ele>
        <time>2012-05-19T07:56:03Z</time>
      </trkpt>
      <trkpt lat="42.79875" lon="0.13039">
        <ele>2859.098145</ele>
        <time>2012-05-19T07:56:13Z</time>
      </trkpt>
      <trkpt lat="42.79875" lon="0.13039">
        <ele>2858.617188</ele>
        <time>2012-05-19T07:56:45Z</time>
      </trkpt>
      <trkpt lat="42.79875" lon="0.13039">
        <ele>2858.617188</ele>
        <time>2012-05-19T07:57:13Z</time>
      </trkpt>
      <trkpt lat="42.79877" lon="0.13039">
        <ele>2857.65625</ele>
        <time>2012-05-19T07:57:28Z</time>
      </trkpt>
      <trkpt lat="42.79877" lon="0.1304">
        <ele>2857.65625</ele>
        <time>2012-05-19T07:57:54Z</time>
      </trkpt>
      <trkpt lat="42.79876" lon="0.1304">
        <ele>2858.136719</ele>
        <time>2012-05-19T07:58:15Z</time>
      </trkpt>
      <trkpt lat="42.79875" lon="0.1304">
        <ele>2858.136719</ele>
        <time>2012-05-19T07:58:38Z</time>
      </trkpt>
      <trkpt lat="42.79875" lon="0.13041">
        <ele>2858.136719</ele>
        <time>2012-05-19T07:58:58Z</time>
      </trkpt>
      <trkpt lat="42.79874" lon="0.13043">
        <ele>2857.65625</ele>
        <time>2012-05-19T07:59:18Z</time>
      </trkpt>
      <trkpt lat="42.79872" lon="0.13047">
        <ele>2858.617188</ele>
        <time>2012-05-19T07:59:34Z</time>
      </trkpt>
      <trkpt lat="42.79873" lon="0.13046">
        <ele>2858.617188</ele>
        <time>2012-05-19T07:59:36Z</time>
      </trkpt>
      <trkpt lat="42.79892" lon="0.13034">
        <ele>2856.214355</ele>
        <time>2012-05-19T07:59:50Z</time>
      </trkpt>
      <trkpt lat="42.799" lon="0.13027">
        <ele>2855.733398</ele>
        <time>2012-05-19T07:59:55Z</time>
      </trkpt>
      <trkpt lat="42.799" lon="0.1304">
        <ele>2850.926758</ele>
        <time>2012-05-19T08:00:04Z</time>
      </trkpt>
      <trkpt lat="42.799" lon="0.13041">
        <ele>2848.042969</ele>
        <time>2012-05-19T08:00:14Z</time>
      </trkpt>
      <trkpt lat="42.79919" lon="0.13034">
        <ele>2840.833496</ele>
        <time>2012-05-19T08:00:29Z</time>
      </trkpt>
      <trkpt lat="42.79923" lon="0.13032">
        <ele>2839.87207</ele>
        <time>2012-05-19T08:00:46Z</time>
      </trkpt>
      <trkpt lat="42.79923" lon="0.13032">
        <ele>2839.87207</ele>
        <time>2012-05-19T08:00:47Z</time>
      </trkpt>
      <trkpt lat="42.79923" lon="0.13042">
        <ele>2837.46875</ele>
        <time>2012-05-19T08:01:01Z</time>
      </trkpt>
      <trkpt lat="42.79922" lon="0.13052">
        <ele>2833.142578</ele>
        <time>2012-05-19T08:01:15Z</time>
      </trkpt>
      <trkpt lat="42.79923" lon="0.13056">
        <ele>2832.661621</ele>
        <time>2012-05-19T08:01:19Z</time>
      </trkpt>
      <trkpt lat="42.79929" lon="0.13074">
        <ele>2824.490723</ele>
        <time>2012-05-19T08:01:27Z</time>
      </trkpt>
      <trkpt lat="42.79941" lon="0.13088">
        <ele>2815.358398</ele>
        <time>2012-05-19T08:01:34Z</time>
      </trkpt>
      <trkpt lat="42.79949" lon="0.13089">
        <ele>2811.032227</ele>
        <time>2012-05-19T08:01:37Z</time>
      </trkpt>
      <trkpt lat="42.79954" lon="0.13086">
        <ele>2809.109863</ele>
        <time>2012-05-19T08:01:40Z</time>
      </trkpt>
      <trkpt lat="42.79954" lon="0.13099">
        <ele>2805.264648</ele>
        <time>2012-05-19T08:01:45Z</time>
      </trkpt>
      <trkpt lat="42.79966" lon="0.13113">
        <ele>2795.650879</ele>
        <time>2012-05-19T08:01:53Z</time>
      </trkpt>
      <trkpt lat="42.79964" lon="0.13114">
        <ele>2794.208984</ele>
        <time>2012-05-19T08:02:12Z</time>
      </trkpt>
      <trkpt lat="42.79964" lon="0.13115">
        <ele>2793.728516</ele>
        <time>2012-05-19T08:02:41Z</time>
      </trkpt>
      <trkpt lat="42.79977" lon="0.13131">
        <ele>2783.634766</ele>
        <time>2012-05-19T08:02:49Z</time>
      </trkpt>
      <trkpt lat="42.79987" lon="0.13156">
        <ele>2770.17627</ele>
        <time>2012-05-19T08:02:55Z</time>
      </trkpt>
      <trkpt lat="42.79998" lon="0.13178">
        <ele>2759.121094</ele>
        <time>2012-05-19T08:03:00Z</time>
      </trkpt>
      <trkpt lat="42.80011" lon="0.13208">
        <ele>2744.220703</ele>
        <time>2012-05-19T08:03:06Z</time>
      </trkpt>
      <trkpt lat="42.79998" lon="0.13219">
        <ele>2737.491211</ele>
        <time>2012-05-19T08:03:10Z</time>
      </trkpt>
      <trkpt lat="42.7999" lon="0.13227">
        <ele>2734.607422</ele>
        <time>2012-05-19T08:03:12Z</time>
      </trkpt>
      <trkpt lat="42.79976" lon="0.13248">
        <ele>2729.320312</ele>
        <time>2012-05-19T08:03:16Z</time>
      </trkpt>
      <trkpt lat="42.79966" lon="0.13258">
        <ele>2724.513672</ele>
        <time>2012-05-19T08:03:25Z</time>
      </trkpt>
      <trkpt lat="42.79966" lon="0.13258">
        <ele>2724.513672</ele>
        <time>2012-05-19T08:03:41Z</time>
      </trkpt>
      <trkpt lat="42.79973" lon="0.13278">
        <ele>2716.823242</ele>
        <time>2012-05-19T08:03:48Z</time>
      </trkpt>
      <trkpt lat="42.79976" lon="0.13333">
        <ele>2699.038574</ele>
        <time>2012-05-19T08:03:57Z</time>
      </trkpt>
      <trkpt lat="42.79964" lon="0.13363">
        <ele>2692.30957</ele>
        <time>2012-05-19T08:04:03Z</time>
      </trkpt>
      <trkpt lat="42.79954" lon="0.13415">
        <ele>2685.099609</ele>
        <time>2012-05-19T08:04:10Z</time>
      </trkpt>
      <trkpt lat="42.7995" lon="0.13426">
        <ele>2677.890137</ele>
        <time>2012-05-19T08:04:23Z</time>
      </trkpt>
      <trkpt lat="42.7995" lon="0.13426">
        <ele>2677.40918</ele>
        <time>2012-05-19T08:04:25Z</time>
      </trkpt>
      <trkpt lat="42.79952" lon="0.13435">
        <ele>2676.447754</ele>
        <time>2012-05-19T08:04:28Z</time>
      </trkpt>
      <trkpt lat="42.79954" lon="0.13466">
        <ele>2673.563477</ele>
        <time>2012-05-19T08:04:33Z</time>
      </trkpt>
      <trkpt lat="42.79951" lon="0.135">
        <ele>2669.237793</ele>
        <time>2012-05-19T08:04:39Z</time>
      </trkpt>
      <trkpt lat="42.79966" lon="0.13508">
        <ele>2657.221191</ele>
        <time>2012-05-19T08:04:47Z</time>
      </trkpt>
      <trkpt lat="42.79966" lon="0.13509">
        <ele>2651.934082</ele>
        <time>2012-05-19T08:04:55Z</time>
      </trkpt>
      <trkpt lat="42.79982" lon="0.13509">
        <ele>2642.80127</ele>
        <time>2012-05-19T08:05:03Z</time>
      </trkpt>
      <trkpt lat="42.79998" lon="0.13514">
        <ele>2631.746582</ele>
        <time>2012-05-19T08:05:10Z</time>
      </trkpt>
      <trkpt lat="42.80003" lon="0.13515">
        <ele>2622.61377</ele>
        <time>2012-05-19T08:05:18Z</time>
      </trkpt>
      <trkpt lat="42.80003" lon="0.13514">
        <ele>2618.288086</ele>
        <time>2012-05-19T08:05:25Z</time>
      </trkpt>
      <trkpt lat="42.80012" lon="0.13519">
        <ele>2614.92334</ele>
        <time>2012-05-19T08:05:30Z</time>
      </trkpt>
      <trkpt lat="42.80014" lon="0.13524">
        <ele>2613.000977</ele>
        <time>2012-05-19T08:05:32Z</time>
      </trkpt>
      <trkpt lat="42.80015" lon="0.13527">
        <ele>2611.558594</ele>
        <time>2012-05-19T08:05:34Z</time>
      </trkpt>
      <trkpt lat="42.80028" lon="0.13537">
        <ele>2604.348633</ele>
        <time>2012-05-19T08:05:42Z</time>
      </trkpt>
      <trkpt lat="42.8004" lon="0.13544">
        <ele>2595.216309</ele>
        <time>2012-05-19T08:05:48Z</time>
      </trkpt>
      <trkpt lat="42.80038" lon="0.13548">
        <ele>2585.603027</ele>
        <time>2012-05-19T08:06:05Z</time>
      </trkpt>
      <trkpt lat="42.80053" lon="0.13551">
        <ele>2579.354492</ele>
        <time>2012-05-19T08:06:13Z</time>
      </trkpt>
      <trkpt lat="42.80069" lon="0.13552">
        <ele>2572.625488</ele>
        <time>2012-05-19T08:06:19Z</time>
      </trkpt>
      <trkpt lat="42.80071" lon="0.1356">
        <ele>2569.741211</ele>
        <time>2012-05-19T08:06:21Z</time>
      </trkpt>
      <trkpt lat="42.80083" lon="0.1356">
        <ele>2562.531494</ele>
        <time>2012-05-19T08:06:27Z</time>
      </trkpt>
      <trkpt lat="42.80086" lon="0.13572">
        <ele>2553.879639</ele>
        <time>2012-05-19T08:06:43Z</time>
      </trkpt>
      <trkpt lat="42.80087" lon="0.13581">
        <ele>2552.4375</ele>
        <time>2012-05-19T08:07:01Z</time>
      </trkpt>
      <trkpt lat="42.80091" lon="0.13595">
        <ele>2551.956787</ele>
        <time>2012-05-19T08:07:15Z</time>
      </trkpt>
      <trkpt lat="42.80097" lon="0.13629">
        <ele>2550.514893</ele>
        <time>2012-05-19T08:07:26Z</time>
      </trkpt>
      <trkpt lat="42.80099" lon="0.13646">
        <ele>2549.553711</ele>
        <time>2012-05-19T08:07:30Z</time>
      </trkpt>
      <trkpt lat="42.80106" lon="0.13669">
        <ele>2548.592285</ele>
        <time>2012-05-19T08:07:34Z</time>
      </trkpt>
      <trkpt lat="42.8011" lon="0.13675">
        <ele>2548.111572</ele>
        <time>2012-05-19T08:07:36Z</time>
      </trkpt>
      <trkpt lat="42.80114" lon="0.13683">
        <ele>2548.111572</ele>
        <time>2012-05-19T08:07:40Z</time>
      </trkpt>
      <trkpt lat="42.80138" lon="0.13728">
        <ele>2542.824463</ele>
        <time>2012-05-19T08:07:53Z</time>
      </trkpt>
      <trkpt lat="42.80148" lon="0.13746">
        <ele>2539.459717</ele>
        <time>2012-05-19T08:07:58Z</time>
      </trkpt>
      <trkpt lat="42.80166" lon="0.13778">
        <ele>2534.65332</ele>
        <time>2012-05-19T08:08:06Z</time>
      </trkpt>
      <trkpt lat="42.80175" lon="0.1379">
        <ele>2532.730469</ele>
        <time>2012-05-19T08:08:09Z</time>
      </trkpt>
      <trkpt lat="42.80184" lon="0.13806">
        <ele>2530.327393</ele>
        <time>2012-05-19T08:08:13Z</time>
      </trkpt>
      <trkpt lat="42.80187" lon="0.1381">
        <ele>2528.885254</ele>
        <time>2012-05-19T08:08:28Z</time>
      </trkpt>
      <trkpt lat="42.80189" lon="0.13814">
        <ele>2528.885254</ele>
        <time>2012-05-19T08:08:36Z</time>
      </trkpt>
      <trkpt lat="42.80189" lon="0.13819">
        <ele>2530.327393</ele>
        <time>2012-05-19T08:08:59Z</time>
      </trkpt>
      <trkpt lat="42.80189" lon="0.13818">
        <ele>2531.769287</ele>
        <time>2012-05-19T08:09:13Z</time>
      </trkpt>
      <trkpt lat="42.80189" lon="0.13815">
        <ele>2531.288574</ele>
        <time>2012-05-19T08:09:43Z</time>
      </trkpt>
      <trkpt lat="42.80189" lon="0.13816">
        <ele>2530.808105</ele>
        <time>2012-05-19T08:10:58Z</time>
      </trkpt>
      <trkpt lat="42.80189" lon="0.13814">
        <ele>2530.808105</ele>
        <time>2012-05-19T08:11:16Z</time>
      </trkpt>
      <trkpt lat="42.8019" lon="0.1381">
        <ele>2530.327393</ele>
        <time>2012-05-19T08:11:38Z</time>
      </trkpt>
      <trkpt lat="42.80203" lon="0.13786">
        <ele>2520.714111</ele>
        <time>2012-05-19T08:11:47Z</time>
      </trkpt>
      <trkpt lat="42.80219" lon="0.13774">
        <ele>2510.139648</ele>
        <time>2012-05-19T08:11:53Z</time>
      </trkpt>
      <trkpt lat="42.80234" lon="0.13761">
        <ele>2497.161865</ele>
        <time>2012-05-19T08:11:59Z</time>
      </trkpt>
      <trkpt lat="42.80259" lon="0.13735">
        <ele>2479.858154</ele>
        <time>2012-05-19T08:12:07Z</time>
      </trkpt>
      <trkpt lat="42.80281" lon="0.13715">
        <ele>2463.996338</ele>
        <time>2012-05-19T08:12:14Z</time>
      </trkpt>
      <trkpt lat="42.80306" lon="0.13706">
        <ele>2453.902588</ele>
        <time>2012-05-19T08:12:21Z</time>
      </trkpt>
      <trkpt lat="42.80314" lon="0.13716">
        <ele>2444.289307</ele>
        <time>2012-05-19T08:12:28Z</time>
      </trkpt>
      <trkpt lat="42.80315" lon="0.13717">
        <ele>2441.885986</ele>
        <time>2012-05-19T08:12:31Z</time>
      </trkpt>
      <trkpt lat="42.80328" lon="0.13716">
        <ele>2432.753418</ele>
        <time>2012-05-19T08:12:40Z</time>
      </trkpt>
      <trkpt lat="42.80328" lon="0.13719">
        <ele>2430.831055</ele>
        <time>2012-05-19T08:12:46Z</time>
      </trkpt>
      <trkpt lat="42.80331" lon="0.13721">
        <ele>2429.869629</ele>
        <time>2012-05-19T08:12:50Z</time>
      </trkpt>
      <trkpt lat="42.80329" lon="0.13742">
        <ele>2428.908203</ele>
        <time>2012-05-19T08:12:57Z</time>
      </trkpt>
      <trkpt lat="42.8033" lon="0.1376">
        <ele>2427.946777</ele>
        <time>2012-05-19T08:13:00Z</time>
      </trkpt>
      <trkpt lat="42.8035" lon="0.13823">
        <ele>2424.101562</ele>
        <time>2012-05-19T08:13:14Z</time>
      </trkpt>
      <trkpt lat="42.80351" lon="0.13828">
        <ele>2423.140381</ele>
        <time>2012-05-19T08:13:30Z</time>
      </trkpt>
      <trkpt lat="42.80365" lon="0.13851">
        <ele>2422.178955</ele>
        <time>2012-05-19T08:13:39Z</time>
      </trkpt>
      <trkpt lat="42.80395" lon="0.1389">
        <ele>2413.5271</ele>
        <time>2012-05-19T08:13:49Z</time>
      </trkpt>
      <trkpt lat="42.80402" lon="0.1391">
        <ele>2409.681641</ele>
        <time>2012-05-19T08:13:52Z</time>
      </trkpt>
      <trkpt lat="42.80403" lon="0.13944">
        <ele>2401.030029</ele>
        <time>2012-05-19T08:14:03Z</time>
      </trkpt>
      <trkpt lat="42.80403" lon="0.13946">
        <ele>2400.068848</ele>
        <time>2012-05-19T08:14:04Z</time>
      </trkpt>
      <trkpt lat="42.8041" lon="0.13961">
        <ele>2396.223633</ele>
        <time>2012-05-19T08:14:11Z</time>
      </trkpt>
      <trkpt lat="42.80455" lon="0.13982">
        <ele>2395.261963</ele>
        <time>2012-05-19T08:14:26Z</time>
      </trkpt>
      <trkpt lat="42.80463" lon="0.13983">
        <ele>2395.261963</ele>
        <time>2012-05-19T08:14:28Z</time>
      </trkpt>
      <trkpt lat="42.80475" lon="0.13988">
        <ele>2392.858643</ele>
        <time>2012-05-19T08:14:31Z</time>
      </trkpt>
      <trkpt lat="42.80487" lon="0.14007">
        <ele>2389.494141</ele>
        <time>2012-05-19T08:14:35Z</time>
      </trkpt>
      <trkpt lat="42.80487" lon="0.1403">
        <ele>2387.09082</ele>
        <time>2012-05-19T08:14:43Z</time>
      </trkpt>
      <trkpt lat="42.80483" lon="0.14033">
        <ele>2388.532959</ele>
        <time>2012-05-19T08:14:53Z</time>
      </trkpt>
      <trkpt lat="42.80476" lon="0.14038">
        <ele>2388.052246</ele>
        <time>2012-05-19T08:15:09Z</time>
      </trkpt>
      <trkpt lat="42.80477" lon="0.1404">
        <ele>2387.571533</ele>
        <time>2012-05-19T08:15:24Z</time>
      </trkpt>
      <trkpt lat="42.80476" lon="0.14043">
        <ele>2387.09082</ele>
        <time>2012-05-19T08:15:34Z</time>
      </trkpt>
      <trkpt lat="42.80478" lon="0.14057">
        <ele>2384.687744</ele>
        <time>2012-05-19T08:15:40Z</time>
      </trkpt>
      <trkpt lat="42.80479" lon="0.14073">
        <ele>2380.361816</ele>
        <time>2012-05-19T08:15:52Z</time>
      </trkpt>
      <trkpt lat="42.80479" lon="0.14073">
        <ele>2380.361816</ele>
        <time>2012-05-19T08:16:12Z</time>
      </trkpt>
      <trkpt lat="42.80478" lon="0.14075">
        <ele>2380.361816</ele>
        <time>2012-05-19T08:16:34Z</time>
      </trkpt>
      <trkpt lat="42.80478" lon="0.14075">
        <ele>2380.361816</ele>
        <time>2012-05-19T08:17:21Z</time>
      </trkpt>
      <trkpt lat="42.80478" lon="0.14075">
        <ele>2380.842529</ele>
        <time>2012-05-19T08:17:38Z</time>
      </trkpt>
      <trkpt lat="42.80479" lon="0.14075">
        <ele>2380.361816</ele>
        <time>2012-05-19T08:18:23Z</time>
      </trkpt>
      <trkpt lat="42.80478" lon="0.14073">
        <ele>2381.322998</ele>
        <time>2012-05-19T08:19:06Z</time>
      </trkpt>
      <trkpt lat="42.80479" lon="0.14083">
        <ele>2381.803711</ele>
        <time>2012-05-19T08:19:25Z</time>
      </trkpt>
      <trkpt lat="42.80478" lon="0.14097">
        <ele>2376.516357</ele>
        <time>2012-05-19T08:19:43Z</time>
      </trkpt>
      <trkpt lat="42.80473" lon="0.14106">
        <ele>2372.19043</ele>
        <time>2012-05-19T08:19:58Z</time>
      </trkpt>
      <trkpt lat="42.80473" lon="0.14108">
        <ele>2371.229004</ele>
        <time>2012-05-19T08:20:15Z</time>
      </trkpt>
      <trkpt lat="42.80472" lon="0.14111">
        <ele>2370.267822</ele>
        <time>2012-05-19T08:20:36Z</time>
      </trkpt>
      <trkpt lat="42.80473" lon="0.14113">
        <ele>2368.825928</ele>
        <time>2012-05-19T08:21:01Z</time>
      </trkpt>
      <trkpt lat="42.80475" lon="0.14118">
        <ele>2365.941895</ele>
        <time>2012-05-19T08:21:21Z</time>
      </trkpt>
      <trkpt lat="42.80474" lon="0.14122">
        <ele>2363.53833</ele>
        <time>2012-05-19T08:21:37Z</time>
      </trkpt>
      <trkpt lat="42.80473" lon="0.14126">
        <ele>2362.096436</ele>
        <time>2012-05-19T08:21:43Z</time>
      </trkpt>
      <trkpt lat="42.80474" lon="0.14134">
        <ele>2360.654541</ele>
        <time>2012-05-19T08:21:57Z</time>
      </trkpt>
      <trkpt lat="42.80474" lon="0.1414">
        <ele>2357.770752</ele>
        <time>2012-05-19T08:22:10Z</time>
      </trkpt>
      <trkpt lat="42.80474" lon="0.1414">
        <ele>2357.290039</ele>
        <time>2012-05-19T08:23:08Z</time>
      </trkpt>
      <trkpt lat="42.80473" lon="0.1414">
        <ele>2354.886719</ele>
        <time>2012-05-19T08:23:30Z</time>
      </trkpt>
      <trkpt lat="42.80473" lon="0.14139">
        <ele>2354.406006</ele>
        <time>2012-05-19T08:23:51Z</time>
      </trkpt>
      <trkpt lat="42.80473" lon="0.1414">
        <ele>2353.925537</ele>
        <time>2012-05-19T08:24:14Z</time>
      </trkpt>
      <trkpt lat="42.80473" lon="0.1414">
        <ele>2354.406006</ele>
        <time>2012-05-19T08:24:32Z</time>
      </trkpt>
      <trkpt lat="42.80475" lon="0.14139">
        <ele>2353.444824</ele>
        <time>2012-05-19T08:24:36Z</time>
      </trkpt>
      <trkpt lat="42.80477" lon="0.14144">
        <ele>2351.522217</ele>
        <time>2012-05-19T08:24:40Z</time>
      </trkpt>
      <trkpt lat="42.80492" lon="0.1416">
        <ele>2340.466797</ele>
        <time>2012-05-19T08:24:49Z</time>
      </trkpt>
      <trkpt lat="42.80492" lon="0.14174">
        <ele>2335.6604</ele>
        <time>2012-05-19T08:24:53Z</time>
      </trkpt>
      <trkpt lat="42.80486" lon="0.14202">
        <ele>2331.334229</ele>
        <time>2012-05-19T08:24:58Z</time>
      </trkpt>
      <trkpt lat="42.805" lon="0.14216">
        <ele>2322.682617</ele>
        <time>2012-05-19T08:25:03Z</time>
      </trkpt>
      <trkpt lat="42.80501" lon="0.1423">
        <ele>2319.318115</ele>
        <time>2012-05-19T08:25:05Z</time>
      </trkpt>
      <trkpt lat="42.80503" lon="0.14238">
        <ele>2312.588623</ele>
        <time>2012-05-19T08:25:22Z</time>
      </trkpt>
      <trkpt lat="42.80504" lon="0.1424">
        <ele>2312.588623</ele>
        <time>2012-05-19T08:25:42Z</time>
      </trkpt>
      <trkpt lat="42.80505" lon="0.1424">
        <ele>2312.588623</ele>
        <time>2012-05-19T08:26:18Z</time>
      </trkpt>
      <trkpt lat="42.80511" lon="0.14239">
        <ele>2311.627441</ele>
        <time>2012-05-19T08:26:22Z</time>
      </trkpt>
      <trkpt lat="42.8053" lon="0.14239">
        <ele>2305.859375</ele>
        <time>2012-05-19T08:26:31Z</time>
      </trkpt>
      <trkpt lat="42.8053" lon="0.14242">
        <ele>2305.378906</ele>
        <time>2012-05-19T08:26:32Z</time>
      </trkpt>
      <trkpt lat="42.80531" lon="0.14249">
        <ele>2304.41748</ele>
        <time>2012-05-19T08:26:34Z</time>
      </trkpt>
      <trkpt lat="42.80537" lon="0.14273">
        <ele>2298.649414</ele>
        <time>2012-05-19T08:26:41Z</time>
      </trkpt>
      <trkpt lat="42.80539" lon="0.14289">
        <ele>2295.765625</ele>
        <time>2012-05-19T08:26:54Z</time>
      </trkpt>
      <trkpt lat="42.80545" lon="0.14279">
        <ele>2295.284912</ele>
        <time>2012-05-19T08:27:04Z</time>
      </trkpt>
      <trkpt lat="42.80546" lon="0.14277">
        <ele>2294.804199</ele>
        <time>2012-05-19T08:27:05Z</time>
      </trkpt>
      <trkpt lat="42.80555" lon="0.14273">
        <ele>2292.401123</ele>
        <time>2012-05-19T08:27:08Z</time>
      </trkpt>
      <trkpt lat="42.80561" lon="0.14267">
        <ele>2290.478271</ele>
        <time>2012-05-19T08:27:10Z</time>
      </trkpt>
      <trkpt lat="42.80589" lon="0.14277">
        <ele>2282.787598</ele>
        <time>2012-05-19T08:27:18Z</time>
      </trkpt>
      <trkpt lat="42.80603" lon="0.1428">
        <ele>2276.539307</ele>
        <time>2012-05-19T08:27:22Z</time>
      </trkpt>
      <trkpt lat="42.80634" lon="0.14295">
        <ele>2265.484131</ele>
        <time>2012-05-19T08:27:31Z</time>
      </trkpt>
      <trkpt lat="42.80665" lon="0.1434">
        <ele>2251.544922</ele>
        <time>2012-05-19T08:27:42Z</time>
      </trkpt>
      <trkpt lat="42.80665" lon="0.1435">
        <ele>2249.622314</ele>
        <time>2012-05-19T08:27:52Z</time>
      </trkpt>
      <trkpt lat="42.80666" lon="0.14354">
        <ele>2249.141602</ele>
        <time>2012-05-19T08:28:11Z</time>
      </trkpt>
      <trkpt lat="42.80666" lon="0.14353">
        <ele>2249.141602</ele>
        <time>2012-05-19T08:28:33Z</time>
      </trkpt>
      <trkpt lat="42.80667" lon="0.14361">
        <ele>2249.622314</ele>
        <time>2012-05-19T08:28:51Z</time>
      </trkpt>
      <trkpt lat="42.80668" lon="0.14363">
        <ele>2249.141602</ele>
        <time>2012-05-19T08:28:53Z</time>
      </trkpt>
      <trkpt lat="42.8067" lon="0.14374">
        <ele>2248.660889</ele>
        <time>2012-05-19T08:29:02Z</time>
      </trkpt>
      <trkpt lat="42.80671" lon="0.14376">
        <ele>2248.660889</ele>
        <time>2012-05-19T08:29:04Z</time>
      </trkpt>
      <trkpt lat="42.8067" lon="0.14383">
        <ele>2248.180176</ele>
        <time>2012-05-19T08:29:08Z</time>
      </trkpt>
      <trkpt lat="42.80671" lon="0.1439">
        <ele>2247.699707</ele>
        <time>2012-05-19T08:29:12Z</time>
      </trkpt>
      <trkpt lat="42.80672" lon="0.14406">
        <ele>2246.257812</ele>
        <time>2012-05-19T08:29:22Z</time>
      </trkpt>
      <trkpt lat="42.80673" lon="0.14426">
        <ele>2244.334961</ele>
        <time>2012-05-19T08:29:36Z</time>
      </trkpt>
      <trkpt lat="42.80676" lon="0.14428">
        <ele>2242.893066</ele>
        <time>2012-05-19T08:29:49Z</time>
      </trkpt>
      <trkpt lat="42.80674" lon="0.14434">
        <ele>2241.451172</ele>
        <time>2012-05-19T08:30:05Z</time>
      </trkpt>
      <trkpt lat="42.80676" lon="0.14437">
        <ele>2240.970459</ele>
        <time>2012-05-19T08:30:08Z</time>
      </trkpt>
      <trkpt lat="42.80676" lon="0.1444">
        <ele>2240.970459</ele>
        <time>2012-05-19T08:30:10Z</time>
      </trkpt>
      <trkpt lat="42.80687" lon="0.14459">
        <ele>2239.047852</ele>
        <time>2012-05-19T08:30:29Z</time>
      </trkpt>
      <trkpt lat="42.80688" lon="0.14461">
        <ele>2239.047852</ele>
        <time>2012-05-19T08:30:31Z</time>
      </trkpt>
      <trkpt lat="42.80689" lon="0.14474">
        <ele>2238.567383</ele>
        <time>2012-05-19T08:30:47Z</time>
      </trkpt>
      <trkpt lat="42.80691" lon="0.14475">
        <ele>2238.567383</ele>
        <time>2012-05-19T08:30:49Z</time>
      </trkpt>
      <trkpt lat="42.80702" lon="0.14491">
        <ele>2238.567383</ele>
        <time>2012-05-19T08:31:03Z</time>
      </trkpt>
      <trkpt lat="42.80705" lon="0.14496">
        <ele>2237.605957</ele>
        <time>2012-05-19T08:31:08Z</time>
      </trkpt>
      <trkpt lat="42.80709" lon="0.14508">
        <ele>2237.605957</ele>
        <time>2012-05-19T08:31:17Z</time>
      </trkpt>
      <trkpt lat="42.80709" lon="0.14508">
        <ele>2240.009277</ele>
        <time>2012-05-19T08:31:29Z</time>
      </trkpt>
      <trkpt lat="42.80709" lon="0.14508">
        <ele>2240.009277</ele>
        <time>2012-05-19T08:31:34Z</time>
      </trkpt>
      <trkpt lat="42.80707" lon="0.14507">
        <ele>2240.970459</ele>
        <time>2012-05-19T08:31:49Z</time>
      </trkpt>
      <trkpt lat="42.80708" lon="0.14506">
        <ele>2241.451172</ele>
        <time>2012-05-19T08:32:10Z</time>
      </trkpt>
      <trkpt lat="42.80708" lon="0.14506">
        <ele>2241.451172</ele>
        <time>2012-05-19T08:32:44Z</time>
      </trkpt>
      <trkpt lat="42.80708" lon="0.14507">
        <ele>2240.970459</ele>
        <time>2012-05-19T08:33:07Z</time>
      </trkpt>
      <trkpt lat="42.80708" lon="0.14506">
        <ele>2241.931885</ele>
        <time>2012-05-19T08:34:27Z</time>
      </trkpt>
      <trkpt lat="42.80708" lon="0.14506">
        <ele>2241.931885</ele>
        <time>2012-05-19T08:34:50Z</time>
      </trkpt>
      <trkpt lat="42.80707" lon="0.14506">
        <ele>2242.412598</ele>
        <time>2012-05-19T08:35:48Z</time>
      </trkpt>
      <trkpt lat="42.80707" lon="0.14505">
        <ele>2242.412598</ele>
        <time>2012-05-19T08:36:18Z</time>
      </trkpt>
      <trkpt lat="42.80708" lon="0.14507">
        <ele>2243.854492</ele>
        <time>2012-05-19T08:37:00Z</time>
      </trkpt>
      <trkpt lat="42.80708" lon="0.14507">
        <ele>2243.373779</ele>
        <time>2012-05-19T08:37:30Z</time>
      </trkpt>
      <trkpt lat="42.80708" lon="0.14507">
        <ele>2243.373779</ele>
        <time>2012-05-19T08:37:48Z</time>
      </trkpt>
      <trkpt lat="42.80709" lon="0.14507">
        <ele>2242.893066</ele>
        <time>2012-05-19T08:38:08Z</time>
      </trkpt>
      <trkpt lat="42.8071" lon="0.14508">
        <ele>2241.451172</ele>
        <time>2012-05-19T08:38:36Z</time>
      </trkpt>
      <trkpt lat="42.80711" lon="0.14511">
        <ele>2241.931885</ele>
        <time>2012-05-19T08:38:57Z</time>
      </trkpt>
      <trkpt lat="42.80715" lon="0.14517">
        <ele>2242.412598</ele>
        <time>2012-05-19T08:39:02Z</time>
      </trkpt>
      <trkpt lat="42.80717" lon="0.14521">
        <ele>2242.893066</ele>
        <time>2012-05-19T08:39:05Z</time>
      </trkpt>
      <trkpt lat="42.8073" lon="0.14539">
        <ele>2242.893066</ele>
        <time>2012-05-19T08:39:24Z</time>
      </trkpt>
      <trkpt lat="42.80732" lon="0.14541">
        <ele>2242.412598</ele>
        <time>2012-05-19T08:39:26Z</time>
      </trkpt>
      <trkpt lat="42.80735" lon="0.14544">
        <ele>2240.970459</ele>
        <time>2012-05-19T08:39:30Z</time>
      </trkpt>
      <trkpt lat="42.8074" lon="0.1455">
        <ele>2238.08667</ele>
        <time>2012-05-19T08:39:40Z</time>
      </trkpt>
      <trkpt lat="42.80745" lon="0.14555">
        <ele>2234.241211</ele>
        <time>2012-05-19T08:39:49Z</time>
      </trkpt>
      <trkpt lat="42.80751" lon="0.14572">
        <ele>2230.395996</ele>
        <time>2012-05-19T08:40:05Z</time>
      </trkpt>
      <trkpt lat="42.80751" lon="0.14573">
        <ele>2229.915283</ele>
        <time>2012-05-19T08:40:26Z</time>
      </trkpt>
      <trkpt lat="42.80751" lon="0.14573">
        <ele>2230.876709</ele>
        <time>2012-05-19T08:40:54Z</time>
      </trkpt>
      <trkpt lat="42.80752" lon="0.14574">
        <ele>2231.357178</ele>
        <time>2012-05-19T08:41:21Z</time>
      </trkpt>
      <trkpt lat="42.80759" lon="0.14575">
        <ele>2230.876709</ele>
        <time>2012-05-19T08:41:25Z</time>
      </trkpt>
      <trkpt lat="42.80769" lon="0.14569">
        <ele>2227.511963</ele>
        <time>2012-05-19T08:41:29Z</time>
      </trkpt>
      <trkpt lat="42.8078" lon="0.14538">
        <ele>2217.898682</ele>
        <time>2012-05-19T08:41:39Z</time>
      </trkpt>
      <trkpt lat="42.80791" lon="0.14526">
        <ele>2210.688965</ele>
        <time>2012-05-19T08:41:43Z</time>
      </trkpt>
      <trkpt lat="42.80821" lon="0.14521">
        <ele>2193.385254</ele>
        <time>2012-05-19T08:41:54Z</time>
      </trkpt>
      <trkpt lat="42.80855" lon="0.14512">
        <ele>2180.888184</ele>
        <time>2012-05-19T08:42:03Z</time>
      </trkpt>
      <trkpt lat="42.80861" lon="0.14509">
        <ele>2178.965332</ele>
        <time>2012-05-19T08:42:04Z</time>
      </trkpt>
      <trkpt lat="42.80878" lon="0.14497">
        <ele>2174.158936</ele>
        <time>2012-05-19T08:42:07Z</time>
      </trkpt>
      <trkpt lat="42.80906" lon="0.14505">
        <ele>2167.910156</ele>
        <time>2012-05-19T08:42:13Z</time>
      </trkpt>
      <trkpt lat="42.80917" lon="0.1451">
        <ele>2166.468262</ele>
        <time>2012-05-19T08:42:15Z</time>
      </trkpt>
      <trkpt lat="42.80938" lon="0.14527">
        <ele>2163.10376</ele>
        <time>2012-05-19T08:42:20Z</time>
      </trkpt>
      <trkpt lat="42.80947" lon="0.14539">
        <ele>2162.142334</ele>
        <time>2012-05-19T08:42:23Z</time>
      </trkpt>
      <trkpt lat="42.80986" lon="0.14556">
        <ele>2157.81665</ele>
        <time>2012-05-19T08:42:33Z</time>
      </trkpt>
      <trkpt lat="42.80992" lon="0.14553">
        <ele>2155.413086</ele>
        <time>2012-05-19T08:42:48Z</time>
      </trkpt>
      <trkpt lat="42.80995" lon="0.14551">
        <ele>2156.374512</ele>
        <time>2012-05-19T08:43:02Z</time>
      </trkpt>
      <trkpt lat="42.80997" lon="0.14551">
        <ele>2156.374512</ele>
        <time>2012-05-19T08:43:04Z</time>
      </trkpt>
      <trkpt lat="42.81001" lon="0.14552">
        <ele>2155.413086</ele>
        <time>2012-05-19T08:43:07Z</time>
      </trkpt>
      <trkpt lat="42.8104" lon="0.14551">
        <ele>2152.529053</ele>
        <time>2012-05-19T08:43:22Z</time>
      </trkpt>
      <trkpt lat="42.81068" lon="0.14573">
        <ele>2151.087158</ele>
        <time>2012-05-19T08:43:33Z</time>
      </trkpt>
      <trkpt lat="42.8111" lon="0.14614">
        <ele>2148.203125</ele>
        <time>2012-05-19T08:43:49Z</time>
      </trkpt>
      <trkpt lat="42.81124" lon="0.14627">
        <ele>2147.241943</ele>
        <time>2012-05-19T08:43:55Z</time>
      </trkpt>
      <trkpt lat="42.81125" lon="0.14636">
        <ele>2146.280762</ele>
        <time>2012-05-19T08:44:07Z</time>
      </trkpt>
      <trkpt lat="42.81126" lon="0.1464">
        <ele>2146.280762</ele>
        <time>2012-05-19T08:44:11Z</time>
      </trkpt>
      <trkpt lat="42.81127" lon="0.14643">
        <ele>2146.76123</ele>
        <time>2012-05-19T08:44:14Z</time>
      </trkpt>
      <trkpt lat="42.81131" lon="0.14653">
        <ele>2147.241943</ele>
        <time>2012-05-19T08:44:21Z</time>
      </trkpt>
      <trkpt lat="42.81138" lon="0.14662">
        <ele>2148.683838</ele>
        <time>2012-05-19T08:44:28Z</time>
      </trkpt>
      <trkpt lat="42.8117" lon="0.14688">
        <ele>2147.241943</ele>
        <time>2012-05-19T08:44:44Z</time>
      </trkpt>
      <trkpt lat="42.81175" lon="0.1469">
        <ele>2147.241943</ele>
        <time>2012-05-19T08:44:47Z</time>
      </trkpt>
      <trkpt lat="42.81184" lon="0.14695">
        <ele>2147.722656</ele>
        <time>2012-05-19T08:44:56Z</time>
      </trkpt>
      <trkpt lat="42.81193" lon="0.14698">
        <ele>2147.722656</ele>
        <time>2012-05-19T08:45:03Z</time>
      </trkpt>
      <trkpt lat="42.81198" lon="0.14699">
        <ele>2147.722656</ele>
        <time>2012-05-19T08:45:19Z</time>
      </trkpt>
      <trkpt lat="42.81203" lon="0.14703">
        <ele>2148.203125</ele>
        <time>2012-05-19T08:45:36Z</time>
      </trkpt>
      <trkpt lat="42.81203" lon="0.14702">
        <ele>2148.683838</ele>
        <time>2012-05-19T08:46:05Z</time>
      </trkpt>
      <trkpt lat="42.81202" lon="0.14702">
        <ele>2148.203125</ele>
        <time>2012-05-19T08:46:21Z</time>
      </trkpt>
      <trkpt lat="42.81202" lon="0.14703">
        <ele>2148.683838</ele>
        <time>2012-05-19T08:47:15Z</time>
      </trkpt>
      <trkpt lat="42.81201" lon="0.14703">
        <ele>2147.722656</ele>
        <time>2012-05-19T08:47:44Z</time>
      </trkpt>
      <trkpt lat="42.81201" lon="0.14703">
        <ele>2147.241943</ele>
        <time>2012-05-19T08:48:52Z</time>
      </trkpt>
      <trkpt lat="42.81201" lon="0.14703">
        <ele>2147.241943</ele>
        <time>2012-05-19T08:49:31Z</time>
      </trkpt>
      <trkpt lat="42.81203" lon="0.14702">
        <ele>2148.203125</ele>
        <time>2012-05-19T08:51:18Z</time>
      </trkpt>
      <trkpt lat="42.81206" lon="0.14705">
        <ele>2149.164551</ele>
        <time>2012-05-19T08:51:41Z</time>
      </trkpt>
      <trkpt lat="42.81219" lon="0.14711">
        <ele>2148.203125</ele>
        <time>2012-05-19T08:51:52Z</time>
      </trkpt>
      <trkpt lat="42.81224" lon="0.14717">
        <ele>2146.280762</ele>
        <time>2012-05-19T08:52:10Z</time>
      </trkpt>
      <trkpt lat="42.81234" lon="0.14717">
        <ele>2144.35791</ele>
        <time>2012-05-19T08:52:19Z</time>
      </trkpt>
      <trkpt lat="42.81252" lon="0.1472">
        <ele>2141.954834</ele>
        <time>2012-05-19T08:52:34Z</time>
      </trkpt>
      <trkpt lat="42.81261" lon="0.14721">
        <ele>2140.993408</ele>
        <time>2012-05-19T08:52:42Z</time>
      </trkpt>
      <trkpt lat="42.81275" lon="0.14722">
        <ele>2140.032227</ele>
        <time>2012-05-19T08:52:53Z</time>
      </trkpt>
      <trkpt lat="42.81289" lon="0.14724">
        <ele>2137.628662</ele>
        <time>2012-05-19T08:53:05Z</time>
      </trkpt>
      <trkpt lat="42.81293" lon="0.14724">
        <ele>2137.628662</ele>
        <time>2012-05-19T08:53:08Z</time>
      </trkpt>
      <trkpt lat="42.81306" lon="0.14721">
        <ele>2133.783447</ele>
        <time>2012-05-19T08:53:24Z</time>
      </trkpt>
      <trkpt lat="42.8131" lon="0.14719">
        <ele>2133.302734</ele>
        <time>2012-05-19T08:53:27Z</time>
      </trkpt>
      <trkpt lat="42.81312" lon="0.1472">
        <ele>2132.822021</ele>
        <time>2012-05-19T08:53:29Z</time>
      </trkpt>
      <trkpt lat="42.81318" lon="0.14721">
        <ele>2131.380127</ele>
        <time>2012-05-19T08:53:35Z</time>
      </trkpt>
      <trkpt lat="42.8132" lon="0.14722">
        <ele>2130.899658</ele>
        <time>2012-05-19T08:53:37Z</time>
      </trkpt>
      <trkpt lat="42.81342" lon="0.14719">
        <ele>2128.496338</ele>
        <time>2012-05-19T08:53:55Z</time>
      </trkpt>
      <trkpt lat="42.81367" lon="0.1472">
        <ele>2124.651123</ele>
        <time>2012-05-19T08:54:13Z</time>
      </trkpt>
      <trkpt lat="42.81373" lon="0.14719">
        <ele>2123.689453</ele>
        <time>2012-05-19T08:54:19Z</time>
      </trkpt>
      <trkpt lat="42.81382" lon="0.14721">
        <ele>2122.247559</ele>
        <time>2012-05-19T08:54:26Z</time>
      </trkpt>
      <trkpt lat="42.81388" lon="0.14724">
        <ele>2120.805664</ele>
        <time>2012-05-19T08:54:32Z</time>
      </trkpt>
      <trkpt lat="42.81393" lon="0.14727">
        <ele>2119.36377</ele>
        <time>2012-05-19T08:54:37Z</time>
      </trkpt>
      <trkpt lat="42.81398" lon="0.14728">
        <ele>2118.402344</ele>
        <time>2012-05-19T08:54:42Z</time>
      </trkpt>
      <trkpt lat="42.814" lon="0.14729">
        <ele>2117.921631</ele>
        <time>2012-05-19T08:54:44Z</time>
      </trkpt>
      <trkpt lat="42.81406" lon="0.14726">
        <ele>2116.960449</ele>
        <time>2012-05-19T08:54:51Z</time>
      </trkpt>
      <trkpt lat="42.81408" lon="0.14724">
        <ele>2115.999023</ele>
        <time>2012-05-19T08:54:54Z</time>
      </trkpt>
      <trkpt lat="42.81426" lon="0.14723">
        <ele>2112.153809</ele>
        <time>2012-05-19T08:55:10Z</time>
      </trkpt>
      <trkpt lat="42.81443" lon="0.14718">
        <ele>2107.827881</ele>
        <time>2012-05-19T08:55:27Z</time>
      </trkpt>
      <trkpt lat="42.81448" lon="0.14715">
        <ele>2106.385742</ele>
        <time>2012-05-19T08:55:33Z</time>
      </trkpt>
      <trkpt lat="42.81451" lon="0.14715">
        <ele>2105.905029</ele>
        <time>2012-05-19T08:55:36Z</time>
      </trkpt>
      <trkpt lat="42.81454" lon="0.14717">
        <ele>2105.424561</ele>
        <time>2012-05-19T08:55:39Z</time>
      </trkpt>
      <trkpt lat="42.81456" lon="0.14718">
        <ele>2105.424561</ele>
        <time>2012-05-19T08:55:41Z</time>
      </trkpt>
      <trkpt lat="42.81463" lon="0.14725">
        <ele>2103.982666</ele>
        <time>2012-05-19T08:55:51Z</time>
      </trkpt>
      <trkpt lat="42.81465" lon="0.14722">
        <ele>2103.02124</ele>
        <time>2012-05-19T08:55:55Z</time>
      </trkpt>
      <trkpt lat="42.81476" lon="0.14715">
        <ele>2100.137451</ele>
        <time>2012-05-19T08:56:05Z</time>
      </trkpt>
      <trkpt lat="42.81491" lon="0.14712">
        <ele>2096.292236</ele>
        <time>2012-05-19T08:56:20Z</time>
      </trkpt>
      <trkpt lat="42.81495" lon="0.1471">
        <ele>2093.888916</ele>
        <time>2012-05-19T08:56:37Z</time>
      </trkpt>
      <trkpt lat="42.81505" lon="0.14714">
        <ele>2090.043457</ele>
        <time>2012-05-19T08:56:45Z</time>
      </trkpt>
      <trkpt lat="42.81513" lon="0.14713">
        <ele>2088.601562</ele>
        <time>2012-05-19T08:56:52Z</time>
      </trkpt>
      <trkpt lat="42.81518" lon="0.14707">
        <ele>2087.159424</ele>
        <time>2012-05-19T08:56:57Z</time>
      </trkpt>
      <trkpt lat="42.81522" lon="0.14701">
        <ele>2086.198242</ele>
        <time>2012-05-19T08:57:02Z</time>
      </trkpt>
      <trkpt lat="42.81529" lon="0.14695">
        <ele>2081.872314</ele>
        <time>2012-05-19T08:57:16Z</time>
      </trkpt>
      <trkpt lat="42.81529" lon="0.14694">
        <ele>2081.872314</ele>
        <time>2012-05-19T08:57:18Z</time>
      </trkpt>
      <trkpt lat="42.81531" lon="0.14687">
        <ele>2080.911133</ele>
        <time>2012-05-19T08:57:28Z</time>
      </trkpt>
      <trkpt lat="42.81531" lon="0.14684">
        <ele>2080.43042</ele>
        <time>2012-05-19T08:57:30Z</time>
      </trkpt>
      <trkpt lat="42.81531" lon="0.14668">
        <ele>2079.949707</ele>
        <time>2012-05-19T08:57:40Z</time>
      </trkpt>
      <trkpt lat="42.81541" lon="0.14657">
        <ele>2079.949707</ele>
        <time>2012-05-19T08:58:05Z</time>
      </trkpt>
      <trkpt lat="42.81557" lon="0.1465">
        <ele>2078.0271</ele>
        <time>2012-05-19T08:58:17Z</time>
      </trkpt>
      <trkpt lat="42.81559" lon="0.14649">
        <ele>2076.104492</ele>
        <time>2012-05-19T08:58:42Z</time>
      </trkpt>
      <trkpt lat="42.81561" lon="0.1465">
        <ele>2076.104492</ele>
        <time>2012-05-19T08:59:26Z</time>
      </trkpt>
      <trkpt lat="42.81561" lon="0.14649">
        <ele>2076.585205</ele>
        <time>2012-05-19T08:59:56Z</time>
      </trkpt>
      <trkpt lat="42.81562" lon="0.14649">
        <ele>2076.104492</ele>
        <time>2012-05-19T09:00:28Z</time>
      </trkpt>
      <trkpt lat="42.81561" lon="0.14648">
        <ele>2075.623535</ele>
        <time>2012-05-19T09:01:24Z</time>
      </trkpt>
      <trkpt lat="42.8156" lon="0.14647">
        <ele>2075.623535</ele>
        <time>2012-05-19T09:06:34Z</time>
      </trkpt>
      <trkpt lat="42.81561" lon="0.14646">
        <ele>2076.104492</ele>
        <time>2012-05-19T09:08:01Z</time>
      </trkpt>
      <trkpt lat="42.81563" lon="0.14645">
        <ele>2076.104492</ele>
        <time>2012-05-19T09:16:44Z</time>
      </trkpt>
      <trkpt lat="42.81565" lon="0.14644">
        <ele>2076.104492</ele>
        <time>2012-05-19T09:17:18Z</time>
      </trkpt>
      <trkpt lat="42.81565" lon="0.14644">
        <ele>2076.104492</ele>
        <time>2012-05-19T09:17:19Z</time>
      </trkpt>
    </trkseg>
  </trk>
</gpx>